<?xml version="1.0" encoding="UTF-8" standalone="no" ?>
<gpx xmlns="http://www.topografix.com/GPX/1/1" xmlns:xsi="http://www.w3.org/2001/XMLSchema-instance" xsi:schemaLocation="http://www.topografix.com/GPX/1/1 http://www.topografix.com/GPX/1/1/gpx.xsd" version="1.1" creator="VisuGPX - https://www.visugpx.com">
  <metadata>
    <name>27km 700m coub 2020</name>
    <desc><![CDATA[Coublevitaine 2022 27 km]]></desc>
  </metadata>
  <trk>
    <name><![CDATA[27km 700m coub 2020]]></name>
    <trkseg>
      <trkpt lat="45.35337" lon="5.61188">
        <ele>314.97</ele>
        <time>2020-02-16T08:09:50Z</time>
      </trkpt>
      <trkpt lat="45.35334" lon="5.61187">
        <ele>314.97</ele>
        <time>2020-02-16T08:09:51Z</time>
      </trkpt>
      <trkpt lat="45.35331" lon="5.61186">
        <ele>314.97</ele>
        <time>2020-02-16T08:09:52Z</time>
      </trkpt>
      <trkpt lat="45.35329" lon="5.61184">
        <ele>315.93</ele>
        <time>2020-02-16T08:09:53Z</time>
      </trkpt>
      <trkpt lat="45.35326" lon="5.61182">
        <ele>315.93</ele>
        <time>2020-02-16T08:09:54Z</time>
      </trkpt>
      <trkpt lat="45.35324" lon="5.61179">
        <ele>315.93</ele>
        <time>2020-02-16T08:09:55Z</time>
      </trkpt>
      <trkpt lat="45.35275" lon="5.61147">
        <ele>314.97</ele>
        <time>2020-02-16T08:10:12Z</time>
      </trkpt>
      <trkpt lat="45.35211" lon="5.61144">
        <ele>316.89</ele>
        <time>2020-02-16T08:10:33Z</time>
      </trkpt>
      <trkpt lat="45.35208" lon="5.61146">
        <ele>316.89</ele>
        <time>2020-02-16T08:10:34Z</time>
      </trkpt>
      <trkpt lat="45.35207" lon="5.6115">
        <ele>316.89</ele>
        <time>2020-02-16T08:10:35Z</time>
      </trkpt>
      <trkpt lat="45.35205" lon="5.61153">
        <ele>316.89</ele>
        <time>2020-02-16T08:10:36Z</time>
      </trkpt>
      <trkpt lat="45.35205" lon="5.61158">
        <ele>316.89</ele>
        <time>2020-02-16T08:10:37Z</time>
      </trkpt>
      <trkpt lat="45.35204" lon="5.61162">
        <ele>316.89</ele>
        <time>2020-02-16T08:10:38Z</time>
      </trkpt>
      <trkpt lat="45.35205" lon="5.61166">
        <ele>316.89</ele>
        <time>2020-02-16T08:10:39Z</time>
      </trkpt>
      <trkpt lat="45.35205" lon="5.6117">
        <ele>316.89</ele>
        <time>2020-02-16T08:10:40Z</time>
      </trkpt>
      <trkpt lat="45.35205" lon="5.61175">
        <ele>317.85</ele>
        <time>2020-02-16T08:10:41Z</time>
      </trkpt>
      <trkpt lat="45.35215" lon="5.6126">
        <ele>318.81</ele>
        <time>2020-02-16T08:11:00Z</time>
      </trkpt>
      <trkpt lat="45.35211" lon="5.61311">
        <ele>319.78</ele>
        <time>2020-02-16T08:11:14Z</time>
      </trkpt>
      <trkpt lat="45.35211" lon="5.61314">
        <ele>321.22</ele>
        <time>2020-02-16T08:11:15Z</time>
      </trkpt>
      <trkpt lat="45.35212" lon="5.61317">
        <ele>321.22</ele>
        <time>2020-02-16T08:11:16Z</time>
      </trkpt>
      <trkpt lat="45.35211" lon="5.61319">
        <ele>321.22</ele>
        <time>2020-02-16T08:11:17Z</time>
      </trkpt>
      <trkpt lat="45.35211" lon="5.61322">
        <ele>321.22</ele>
        <time>2020-02-16T08:11:18Z</time>
      </trkpt>
      <trkpt lat="45.35216" lon="5.61353">
        <ele>324.1</ele>
        <time>2020-02-16T08:11:32Z</time>
      </trkpt>
      <trkpt lat="45.35219" lon="5.61385">
        <ele>326.99</ele>
        <time>2020-02-16T08:11:48Z</time>
      </trkpt>
      <trkpt lat="45.35219" lon="5.61411">
        <ele>329.87</ele>
        <time>2020-02-16T08:12:01Z</time>
      </trkpt>
      <trkpt lat="45.35218" lon="5.61437">
        <ele>333.23</ele>
        <time>2020-02-16T08:12:14Z</time>
      </trkpt>
      <trkpt lat="45.35212" lon="5.61466">
        <ele>336.12</ele>
        <time>2020-02-16T08:12:28Z</time>
      </trkpt>
      <trkpt lat="45.35204" lon="5.61505">
        <ele>339</ele>
        <time>2020-02-16T08:12:45Z</time>
      </trkpt>
      <trkpt lat="45.35188" lon="5.61556">
        <ele>340.92</ele>
        <time>2020-02-16T08:13:05Z</time>
      </trkpt>
      <trkpt lat="45.35152" lon="5.61604">
        <ele>342.85</ele>
        <time>2020-02-16T08:13:25Z</time>
      </trkpt>
      <trkpt lat="45.35144" lon="5.61617">
        <ele>343.81</ele>
        <time>2020-02-16T08:13:31Z</time>
      </trkpt>
      <trkpt lat="45.35145" lon="5.6162">
        <ele>343.81</ele>
        <time>2020-02-16T08:13:32Z</time>
      </trkpt>
      <trkpt lat="45.35173" lon="5.61658">
        <ele>346.21</ele>
        <time>2020-02-16T08:13:50Z</time>
      </trkpt>
      <trkpt lat="45.35204" lon="5.617">
        <ele>347.17</ele>
        <time>2020-02-16T08:14:08Z</time>
      </trkpt>
      <trkpt lat="45.35241" lon="5.6175">
        <ele>348.13</ele>
        <time>2020-02-16T08:14:27Z</time>
      </trkpt>
      <trkpt lat="45.35266" lon="5.61782">
        <ele>350.06</ele>
        <time>2020-02-16T08:14:43Z</time>
      </trkpt>
      <trkpt lat="45.35287" lon="5.61819">
        <ele>351.98</ele>
        <time>2020-02-16T08:15:00Z</time>
      </trkpt>
      <trkpt lat="45.35287" lon="5.61858">
        <ele>352.94</ele>
        <time>2020-02-16T08:15:13Z</time>
      </trkpt>
      <trkpt lat="45.35284" lon="5.61888">
        <ele>354.86</ele>
        <time>2020-02-16T08:15:26Z</time>
      </trkpt>
      <trkpt lat="45.35278" lon="5.61889">
        <ele>355.83</ele>
        <time>2020-02-16T08:15:32Z</time>
      </trkpt>
      <trkpt lat="45.35266" lon="5.61901">
        <ele>359.19</ele>
        <time>2020-02-16T08:15:44Z</time>
      </trkpt>
      <trkpt lat="45.35258" lon="5.61908">
        <ele>361.11</ele>
        <time>2020-02-16T08:15:58Z</time>
      </trkpt>
      <trkpt lat="45.35256" lon="5.61906">
        <ele>361.11</ele>
        <time>2020-02-16T08:16:40Z</time>
      </trkpt>
      <trkpt lat="45.35254" lon="5.61908">
        <ele>361.11</ele>
        <time>2020-02-16T08:16:59Z</time>
      </trkpt>
      <trkpt lat="45.35247" lon="5.61914">
        <ele>361.11</ele>
        <time>2020-02-16T08:17:04Z</time>
      </trkpt>
      <trkpt lat="45.35228" lon="5.61932">
        <ele>364</ele>
        <time>2020-02-16T08:17:17Z</time>
      </trkpt>
      <trkpt lat="45.35213" lon="5.61943">
        <ele>365.92</ele>
        <time>2020-02-16T08:17:29Z</time>
      </trkpt>
      <trkpt lat="45.35212" lon="5.61944">
        <ele>365.92</ele>
        <time>2020-02-16T08:17:30Z</time>
      </trkpt>
      <trkpt lat="45.35195" lon="5.61953">
        <ele>369.76</ele>
        <time>2020-02-16T08:17:44Z</time>
      </trkpt>
      <trkpt lat="45.35185" lon="5.61961">
        <ele>372.17</ele>
        <time>2020-02-16T08:17:52Z</time>
      </trkpt>
      <trkpt lat="45.35171" lon="5.61984">
        <ele>375.05</ele>
        <time>2020-02-16T08:18:05Z</time>
      </trkpt>
      <trkpt lat="45.3516" lon="5.61997">
        <ele>376.97</ele>
        <time>2020-02-16T08:18:16Z</time>
      </trkpt>
      <trkpt lat="45.35143" lon="5.6202">
        <ele>378.9</ele>
        <time>2020-02-16T08:18:31Z</time>
      </trkpt>
      <trkpt lat="45.35124" lon="5.62036">
        <ele>379.86</ele>
        <time>2020-02-16T08:18:43Z</time>
      </trkpt>
      <trkpt lat="45.3511" lon="5.62046">
        <ele>381.78</ele>
        <time>2020-02-16T08:18:53Z</time>
      </trkpt>
      <trkpt lat="45.35099" lon="5.62055">
        <ele>381.78</ele>
        <time>2020-02-16T08:19:00Z</time>
      </trkpt>
      <trkpt lat="45.35087" lon="5.62077">
        <ele>383.22</ele>
        <time>2020-02-16T08:19:09Z</time>
      </trkpt>
      <trkpt lat="45.35086" lon="5.62083">
        <ele>383.22</ele>
        <time>2020-02-16T08:19:11Z</time>
      </trkpt>
      <trkpt lat="45.35088" lon="5.62109">
        <ele>386.11</ele>
        <time>2020-02-16T08:19:23Z</time>
      </trkpt>
      <trkpt lat="45.35077" lon="5.6213">
        <ele>386.11</ele>
        <time>2020-02-16T08:19:34Z</time>
      </trkpt>
      <trkpt lat="45.35045" lon="5.62146">
        <ele>386.11</ele>
        <time>2020-02-16T08:19:48Z</time>
      </trkpt>
      <trkpt lat="45.35048" lon="5.62166">
        <ele>387.07</ele>
        <time>2020-02-16T08:19:56Z</time>
      </trkpt>
      <trkpt lat="45.35049" lon="5.62171">
        <ele>387.07</ele>
        <time>2020-02-16T08:19:58Z</time>
      </trkpt>
      <trkpt lat="45.35049" lon="5.62182">
        <ele>388.03</ele>
        <time>2020-02-16T08:20:02Z</time>
      </trkpt>
      <trkpt lat="45.35061" lon="5.62263">
        <ele>385.15</ele>
        <time>2020-02-16T08:20:15Z</time>
      </trkpt>
      <trkpt lat="45.3506" lon="5.62274">
        <ele>386.11</ele>
        <time>2020-02-16T08:20:19Z</time>
      </trkpt>
      <trkpt lat="45.35031" lon="5.62302">
        <ele>388.99</ele>
        <time>2020-02-16T08:20:37Z</time>
      </trkpt>
      <trkpt lat="45.35013" lon="5.62322">
        <ele>391.87</ele>
        <time>2020-02-16T08:20:51Z</time>
      </trkpt>
      <trkpt lat="45.34992" lon="5.6231">
        <ele>393.8</ele>
        <time>2020-02-16T08:21:06Z</time>
      </trkpt>
      <trkpt lat="45.34975" lon="5.62281">
        <ele>396.2</ele>
        <time>2020-02-16T08:21:20Z</time>
      </trkpt>
      <trkpt lat="45.34948" lon="5.62288">
        <ele>399.08</ele>
        <time>2020-02-16T08:21:36Z</time>
      </trkpt>
      <trkpt lat="45.34931" lon="5.62301">
        <ele>400.05</ele>
        <time>2020-02-16T08:21:46Z</time>
      </trkpt>
      <trkpt lat="45.34936" lon="5.62313">
        <ele>401.01</ele>
        <time>2020-02-16T08:21:53Z</time>
      </trkpt>
      <trkpt lat="45.34971" lon="5.62318">
        <ele>401.97</ele>
        <time>2020-02-16T08:22:08Z</time>
      </trkpt>
      <trkpt lat="45.34997" lon="5.62355">
        <ele>400.05</ele>
        <time>2020-02-16T08:22:17Z</time>
      </trkpt>
      <trkpt lat="45.35034" lon="5.62369">
        <ele>401.01</ele>
        <time>2020-02-16T08:22:28Z</time>
      </trkpt>
      <trkpt lat="45.35069" lon="5.6235">
        <ele>402.93</ele>
        <time>2020-02-16T08:22:42Z</time>
      </trkpt>
      <trkpt lat="45.35098" lon="5.62362">
        <ele>405.81</ele>
        <time>2020-02-16T08:22:56Z</time>
      </trkpt>
      <trkpt lat="45.35119" lon="5.6239">
        <ele>409.18</ele>
        <time>2020-02-16T08:23:11Z</time>
      </trkpt>
      <trkpt lat="45.35145" lon="5.6242">
        <ele>412.06</ele>
        <time>2020-02-16T08:23:27Z</time>
      </trkpt>
      <trkpt lat="45.35178" lon="5.62449">
        <ele>414.95</ele>
        <time>2020-02-16T08:23:46Z</time>
      </trkpt>
      <trkpt lat="45.35197" lon="5.62479">
        <ele>417.83</ele>
        <time>2020-02-16T08:24:01Z</time>
      </trkpt>
      <trkpt lat="45.35225" lon="5.62511">
        <ele>421.19</ele>
        <time>2020-02-16T08:24:19Z</time>
      </trkpt>
      <trkpt lat="45.3526" lon="5.62544">
        <ele>424.08</ele>
        <time>2020-02-16T08:24:39Z</time>
      </trkpt>
      <trkpt lat="45.35295" lon="5.62581">
        <ele>425.04</ele>
        <time>2020-02-16T08:24:56Z</time>
      </trkpt>
      <trkpt lat="45.35325" lon="5.62607">
        <ele>427.92</ele>
        <time>2020-02-16T08:25:11Z</time>
      </trkpt>
      <trkpt lat="45.35386" lon="5.62628">
        <ele>427.92</ele>
        <time>2020-02-16T08:25:32Z</time>
      </trkpt>
      <trkpt lat="45.35451" lon="5.62648">
        <ele>428.89</ele>
        <time>2020-02-16T08:25:52Z</time>
      </trkpt>
      <trkpt lat="45.35495" lon="5.62664">
        <ele>428.89</ele>
        <time>2020-02-16T08:26:07Z</time>
      </trkpt>
      <trkpt lat="45.35527" lon="5.62669">
        <ele>428.89</ele>
        <time>2020-02-16T08:26:18Z</time>
      </trkpt>
      <trkpt lat="45.35582" lon="5.62665">
        <ele>426</ele>
        <time>2020-02-16T08:26:26Z</time>
      </trkpt>
      <trkpt lat="45.35627" lon="5.62671">
        <ele>422.16</ele>
        <time>2020-02-16T08:26:31Z</time>
      </trkpt>
      <trkpt lat="45.35729" lon="5.62689">
        <ele>420.23</ele>
        <time>2020-02-16T08:26:45Z</time>
      </trkpt>
      <trkpt lat="45.35805" lon="5.62655">
        <ele>418.79</ele>
        <time>2020-02-16T08:26:58Z</time>
      </trkpt>
      <trkpt lat="45.3582" lon="5.62644">
        <ele>418.79</ele>
        <time>2020-02-16T08:27:01Z</time>
      </trkpt>
      <trkpt lat="45.35825" lon="5.62642">
        <ele>418.79</ele>
        <time>2020-02-16T08:27:02Z</time>
      </trkpt>
      <trkpt lat="45.35834" lon="5.62636">
        <ele>418.79</ele>
        <time>2020-02-16T08:27:04Z</time>
      </trkpt>
      <trkpt lat="45.35839" lon="5.62635">
        <ele>418.79</ele>
        <time>2020-02-16T08:27:05Z</time>
      </trkpt>
      <trkpt lat="45.35869" lon="5.62629">
        <ele>418.79</ele>
        <time>2020-02-16T08:27:11Z</time>
      </trkpt>
      <trkpt lat="45.35922" lon="5.62625">
        <ele>421.19</ele>
        <time>2020-02-16T08:27:26Z</time>
      </trkpt>
      <trkpt lat="45.3597" lon="5.62628">
        <ele>424.08</ele>
        <time>2020-02-16T08:27:43Z</time>
      </trkpt>
      <trkpt lat="45.35994" lon="5.62662">
        <ele>426.96</ele>
        <time>2020-02-16T08:27:58Z</time>
      </trkpt>
      <trkpt lat="45.36011" lon="5.62693">
        <ele>428.89</ele>
        <time>2020-02-16T08:28:13Z</time>
      </trkpt>
      <trkpt lat="45.36011" lon="5.62695">
        <ele>428.89</ele>
        <time>2020-02-16T08:28:14Z</time>
      </trkpt>
      <trkpt lat="45.36011" lon="5.62697">
        <ele>428.89</ele>
        <time>2020-02-16T08:28:15Z</time>
      </trkpt>
      <trkpt lat="45.36005" lon="5.62736">
        <ele>428.89</ele>
        <time>2020-02-16T08:28:28Z</time>
      </trkpt>
      <trkpt lat="45.35996" lon="5.62784">
        <ele>429.85</ele>
        <time>2020-02-16T08:28:42Z</time>
      </trkpt>
      <trkpt lat="45.35981" lon="5.6286">
        <ele>430.81</ele>
        <time>2020-02-16T08:29:01Z</time>
      </trkpt>
      <trkpt lat="45.35969" lon="5.62929">
        <ele>434.17</ele>
        <time>2020-02-16T08:29:22Z</time>
      </trkpt>
      <trkpt lat="45.35964" lon="5.62949">
        <ele>435.13</ele>
        <time>2020-02-16T08:29:29Z</time>
      </trkpt>
      <trkpt lat="45.35962" lon="5.6295">
        <ele>435.13</ele>
        <time>2020-02-16T08:29:30Z</time>
      </trkpt>
      <trkpt lat="45.35961" lon="5.6295">
        <ele>436.1</ele>
        <time>2020-02-16T08:29:31Z</time>
      </trkpt>
      <trkpt lat="45.35959" lon="5.6295">
        <ele>436.1</ele>
        <time>2020-02-16T08:29:32Z</time>
      </trkpt>
      <trkpt lat="45.35957" lon="5.62949">
        <ele>436.1</ele>
        <time>2020-02-16T08:29:33Z</time>
      </trkpt>
      <trkpt lat="45.35954" lon="5.62948">
        <ele>436.1</ele>
        <time>2020-02-16T08:29:34Z</time>
      </trkpt>
      <trkpt lat="45.35953" lon="5.62946">
        <ele>436.1</ele>
        <time>2020-02-16T08:29:35Z</time>
      </trkpt>
      <trkpt lat="45.35927" lon="5.62936">
        <ele>437.06</ele>
        <time>2020-02-16T08:29:48Z</time>
      </trkpt>
      <trkpt lat="45.35889" lon="5.62923">
        <ele>436.1</ele>
        <time>2020-02-16T08:29:59Z</time>
      </trkpt>
      <trkpt lat="45.35854" lon="5.62921">
        <ele>436.1</ele>
        <time>2020-02-16T08:30:11Z</time>
      </trkpt>
      <trkpt lat="45.35828" lon="5.62926">
        <ele>437.06</ele>
        <time>2020-02-16T08:30:24Z</time>
      </trkpt>
      <trkpt lat="45.35799" lon="5.62937">
        <ele>438.98</ele>
        <time>2020-02-16T08:30:39Z</time>
      </trkpt>
      <trkpt lat="45.35766" lon="5.62945">
        <ele>440.9</ele>
        <time>2020-02-16T08:30:54Z</time>
      </trkpt>
      <trkpt lat="45.35736" lon="5.62949">
        <ele>441.86</ele>
        <time>2020-02-16T08:31:09Z</time>
      </trkpt>
      <trkpt lat="45.35734" lon="5.62949">
        <ele>441.86</ele>
        <time>2020-02-16T08:31:10Z</time>
      </trkpt>
      <trkpt lat="45.35714" lon="5.62953">
        <ele>442.82</ele>
        <time>2020-02-16T08:31:20Z</time>
      </trkpt>
      <trkpt lat="45.35698" lon="5.62963">
        <ele>445.23</ele>
        <time>2020-02-16T08:31:31Z</time>
      </trkpt>
      <trkpt lat="45.35696" lon="5.62964">
        <ele>445.23</ele>
        <time>2020-02-16T08:31:32Z</time>
      </trkpt>
      <trkpt lat="45.35683" lon="5.62976">
        <ele>448.11</ele>
        <time>2020-02-16T08:31:45Z</time>
      </trkpt>
      <trkpt lat="45.35669" lon="5.62993">
        <ele>451</ele>
        <time>2020-02-16T08:31:58Z</time>
      </trkpt>
      <trkpt lat="45.35655" lon="5.63017">
        <ele>453.88</ele>
        <time>2020-02-16T08:32:13Z</time>
      </trkpt>
      <trkpt lat="45.35642" lon="5.63045">
        <ele>456.76</ele>
        <time>2020-02-16T08:32:31Z</time>
      </trkpt>
      <trkpt lat="45.35641" lon="5.6305">
        <ele>456.76</ele>
        <time>2020-02-16T08:32:34Z</time>
      </trkpt>
      <trkpt lat="45.35631" lon="5.63074">
        <ele>460.13</ele>
        <time>2020-02-16T08:32:49Z</time>
      </trkpt>
      <trkpt lat="45.35627" lon="5.6308">
        <ele>462.05</ele>
        <time>2020-02-16T08:32:54Z</time>
      </trkpt>
      <trkpt lat="45.35627" lon="5.63082">
        <ele>462.05</ele>
        <time>2020-02-16T08:32:55Z</time>
      </trkpt>
      <trkpt lat="45.35612" lon="5.63095">
        <ele>464.93</ele>
        <time>2020-02-16T08:33:10Z</time>
      </trkpt>
      <trkpt lat="45.35601" lon="5.63103">
        <ele>466.86</ele>
        <time>2020-02-16T08:33:22Z</time>
      </trkpt>
      <trkpt lat="45.35586" lon="5.63126">
        <ele>468.78</ele>
        <time>2020-02-16T08:33:39Z</time>
      </trkpt>
      <trkpt lat="45.35585" lon="5.63127">
        <ele>468.78</ele>
        <time>2020-02-16T08:33:40Z</time>
      </trkpt>
      <trkpt lat="45.35584" lon="5.63128">
        <ele>468.78</ele>
        <time>2020-02-16T08:33:41Z</time>
      </trkpt>
      <trkpt lat="45.35583" lon="5.63128">
        <ele>468.78</ele>
        <time>2020-02-16T08:33:42Z</time>
      </trkpt>
      <trkpt lat="45.35582" lon="5.63128">
        <ele>470.22</ele>
        <time>2020-02-16T08:33:43Z</time>
      </trkpt>
      <trkpt lat="45.35581" lon="5.63126">
        <ele>470.22</ele>
        <time>2020-02-16T08:33:44Z</time>
      </trkpt>
      <trkpt lat="45.3558" lon="5.63125">
        <ele>470.22</ele>
        <time>2020-02-16T08:33:45Z</time>
      </trkpt>
      <trkpt lat="45.35556" lon="5.63102">
        <ele>470.22</ele>
        <time>2020-02-16T08:34:01Z</time>
      </trkpt>
      <trkpt lat="45.35517" lon="5.63075">
        <ele>472.14</ele>
        <time>2020-02-16T08:34:23Z</time>
      </trkpt>
      <trkpt lat="45.35492" lon="5.63063">
        <ele>473.11</ele>
        <time>2020-02-16T08:34:40Z</time>
      </trkpt>
      <trkpt lat="45.35472" lon="5.6308">
        <ele>475.03</ele>
        <time>2020-02-16T08:34:57Z</time>
      </trkpt>
      <trkpt lat="45.35451" lon="5.63088">
        <ele>477.91</ele>
        <time>2020-02-16T08:35:15Z</time>
      </trkpt>
      <trkpt lat="45.35432" lon="5.63092">
        <ele>479.84</ele>
        <time>2020-02-16T08:35:29Z</time>
      </trkpt>
      <trkpt lat="45.35418" lon="5.6309">
        <ele>482.24</ele>
        <time>2020-02-16T08:35:39Z</time>
      </trkpt>
      <trkpt lat="45.35416" lon="5.6309">
        <ele>482.24</ele>
        <time>2020-02-16T08:35:40Z</time>
      </trkpt>
      <trkpt lat="45.35391" lon="5.63085">
        <ele>485.12</ele>
        <time>2020-02-16T08:35:56Z</time>
      </trkpt>
      <trkpt lat="45.35367" lon="5.63077">
        <ele>487.05</ele>
        <time>2020-02-16T08:36:14Z</time>
      </trkpt>
      <trkpt lat="45.35349" lon="5.63066">
        <ele>489.93</ele>
        <time>2020-02-16T08:36:30Z</time>
      </trkpt>
      <trkpt lat="45.35331" lon="5.63058">
        <ele>491.85</ele>
        <time>2020-02-16T08:36:44Z</time>
      </trkpt>
      <trkpt lat="45.35312" lon="5.63051">
        <ele>492.81</ele>
        <time>2020-02-16T08:36:57Z</time>
      </trkpt>
      <trkpt lat="45.35299" lon="5.63048">
        <ele>493.77</ele>
        <time>2020-02-16T08:37:05Z</time>
      </trkpt>
      <trkpt lat="45.35277" lon="5.6305">
        <ele>495.22</ele>
        <time>2020-02-16T08:37:18Z</time>
      </trkpt>
      <trkpt lat="45.35257" lon="5.63053">
        <ele>496.18</ele>
        <time>2020-02-16T08:37:31Z</time>
      </trkpt>
      <trkpt lat="45.35235" lon="5.6306">
        <ele>499.06</ele>
        <time>2020-02-16T08:37:47Z</time>
      </trkpt>
      <trkpt lat="45.35232" lon="5.63061">
        <ele>499.06</ele>
        <time>2020-02-16T08:37:49Z</time>
      </trkpt>
      <trkpt lat="45.35215" lon="5.63076">
        <ele>500.98</ele>
        <time>2020-02-16T08:38:03Z</time>
      </trkpt>
      <trkpt lat="45.35198" lon="5.63089">
        <ele>503.87</ele>
        <time>2020-02-16T08:38:18Z</time>
      </trkpt>
      <trkpt lat="45.35182" lon="5.631">
        <ele>507.23</ele>
        <time>2020-02-16T08:38:31Z</time>
      </trkpt>
      <trkpt lat="45.35166" lon="5.63103">
        <ele>509.16</ele>
        <time>2020-02-16T08:38:47Z</time>
      </trkpt>
      <trkpt lat="45.35145" lon="5.63101">
        <ele>512.04</ele>
        <time>2020-02-16T08:39:04Z</time>
      </trkpt>
      <trkpt lat="45.35138" lon="5.631">
        <ele>513</ele>
        <time>2020-02-16T08:39:09Z</time>
      </trkpt>
      <trkpt lat="45.35117" lon="5.63097">
        <ele>513.96</ele>
        <time>2020-02-16T08:39:22Z</time>
      </trkpt>
      <trkpt lat="45.35094" lon="5.631">
        <ele>514.92</ele>
        <time>2020-02-16T08:39:35Z</time>
      </trkpt>
      <trkpt lat="45.35072" lon="5.63103">
        <ele>516.85</ele>
        <time>2020-02-16T08:39:49Z</time>
      </trkpt>
      <trkpt lat="45.35052" lon="5.6311">
        <ele>517.81</ele>
        <time>2020-02-16T08:40:03Z</time>
      </trkpt>
      <trkpt lat="45.35051" lon="5.6311">
        <ele>517.81</ele>
        <time>2020-02-16T08:40:04Z</time>
      </trkpt>
      <trkpt lat="45.35041" lon="5.63114">
        <ele>518.77</ele>
        <time>2020-02-16T08:40:10Z</time>
      </trkpt>
      <trkpt lat="45.35028" lon="5.63121">
        <ele>521.17</ele>
        <time>2020-02-16T08:40:18Z</time>
      </trkpt>
      <trkpt lat="45.35025" lon="5.63124">
        <ele>521.17</ele>
        <time>2020-02-16T08:40:21Z</time>
      </trkpt>
      <trkpt lat="45.35019" lon="5.63127">
        <ele>521.17</ele>
        <time>2020-02-16T08:40:25Z</time>
      </trkpt>
      <trkpt lat="45.35009" lon="5.63137">
        <ele>523.09</ele>
        <time>2020-02-16T08:40:35Z</time>
      </trkpt>
      <trkpt lat="45.34994" lon="5.63152">
        <ele>525.98</ele>
        <time>2020-02-16T08:40:47Z</time>
      </trkpt>
      <trkpt lat="45.34979" lon="5.6316">
        <ele>527.9</ele>
        <time>2020-02-16T08:41:01Z</time>
      </trkpt>
      <trkpt lat="45.34963" lon="5.63174">
        <ele>530.79</ele>
        <time>2020-02-16T08:41:17Z</time>
      </trkpt>
      <trkpt lat="45.34942" lon="5.63189">
        <ele>534.15</ele>
        <time>2020-02-16T08:41:34Z</time>
      </trkpt>
      <trkpt lat="45.34929" lon="5.63198">
        <ele>536.07</ele>
        <time>2020-02-16T08:41:48Z</time>
      </trkpt>
      <trkpt lat="45.34906" lon="5.63211">
        <ele>538.96</ele>
        <time>2020-02-16T08:42:07Z</time>
      </trkpt>
      <trkpt lat="45.34895" lon="5.63224">
        <ele>541.84</ele>
        <time>2020-02-16T08:42:19Z</time>
      </trkpt>
      <trkpt lat="45.34881" lon="5.63237">
        <ele>545.2</ele>
        <time>2020-02-16T08:42:31Z</time>
      </trkpt>
      <trkpt lat="45.34872" lon="5.63243">
        <ele>548.09</ele>
        <time>2020-02-16T08:42:40Z</time>
      </trkpt>
      <trkpt lat="45.34869" lon="5.63244">
        <ele>549.05</ele>
        <time>2020-02-16T08:42:42Z</time>
      </trkpt>
      <trkpt lat="45.34859" lon="5.63247">
        <ele>550.01</ele>
        <time>2020-02-16T08:42:50Z</time>
      </trkpt>
      <trkpt lat="45.34851" lon="5.63255">
        <ele>550.97</ele>
        <time>2020-02-16T08:42:58Z</time>
      </trkpt>
      <trkpt lat="45.34837" lon="5.63281">
        <ele>553.86</ele>
        <time>2020-02-16T08:43:17Z</time>
      </trkpt>
      <trkpt lat="45.34834" lon="5.63284">
        <ele>554.82</ele>
        <time>2020-02-16T08:43:21Z</time>
      </trkpt>
      <trkpt lat="45.34829" lon="5.63287">
        <ele>555.78</ele>
        <time>2020-02-16T08:43:25Z</time>
      </trkpt>
      <trkpt lat="45.34815" lon="5.63299">
        <ele>557.22</ele>
        <time>2020-02-16T08:43:40Z</time>
      </trkpt>
      <trkpt lat="45.34817" lon="5.63301">
        <ele>557.22</ele>
        <time>2020-02-16T08:43:54Z</time>
      </trkpt>
      <trkpt lat="45.34821" lon="5.63302">
        <ele>553.86</ele>
        <time>2020-02-16T08:44:49Z</time>
      </trkpt>
      <trkpt lat="45.34821" lon="5.63302">
        <ele>554.82</ele>
        <time>2020-02-16T08:44:50Z</time>
      </trkpt>
      <trkpt lat="45.34821" lon="5.63302">
        <ele>557.22</ele>
        <time>2020-02-16T08:44:53Z</time>
      </trkpt>
      <trkpt lat="45.34821" lon="5.63303">
        <ele>557.22</ele>
        <time>2020-02-16T08:45:42Z</time>
      </trkpt>
      <trkpt lat="45.34818" lon="5.63313">
        <ele>557.22</ele>
        <time>2020-02-16T08:47:20Z</time>
      </trkpt>
      <trkpt lat="45.34822" lon="5.63303">
        <ele>557.22</ele>
        <time>2020-02-16T08:49:00Z</time>
      </trkpt>
      <trkpt lat="45.34822" lon="5.63299">
        <ele>555.78</ele>
        <time>2020-02-16T08:49:15Z</time>
      </trkpt>
      <trkpt lat="45.34823" lon="5.63297">
        <ele>554.82</ele>
        <time>2020-02-16T08:50:31Z</time>
      </trkpt>
      <trkpt lat="45.34822" lon="5.63295">
        <ele>554.82</ele>
        <time>2020-02-16T08:51:27Z</time>
      </trkpt>
      <trkpt lat="45.34823" lon="5.63296">
        <ele>554.82</ele>
        <time>2020-02-16T08:52:40Z</time>
      </trkpt>
      <trkpt lat="45.34826" lon="5.633">
        <ele>554.82</ele>
        <time>2020-02-16T08:53:05Z</time>
      </trkpt>
      <trkpt lat="45.34829" lon="5.633">
        <ele>554.82</ele>
        <time>2020-02-16T08:53:07Z</time>
      </trkpt>
      <trkpt lat="45.34845" lon="5.63298">
        <ele>552.9</ele>
        <time>2020-02-16T08:53:18Z</time>
      </trkpt>
      <trkpt lat="45.34877" lon="5.63291">
        <ele>551.93</ele>
        <time>2020-02-16T08:53:31Z</time>
      </trkpt>
      <trkpt lat="45.34902" lon="5.63287">
        <ele>550.97</ele>
        <time>2020-02-16T08:53:37Z</time>
      </trkpt>
      <trkpt lat="45.34943" lon="5.63279">
        <ele>549.05</ele>
        <time>2020-02-16T08:53:46Z</time>
      </trkpt>
      <trkpt lat="45.34969" lon="5.63284">
        <ele>548.09</ele>
        <time>2020-02-16T08:53:51Z</time>
      </trkpt>
      <trkpt lat="45.35003" lon="5.63317">
        <ele>548.09</ele>
        <time>2020-02-16T08:54:01Z</time>
      </trkpt>
      <trkpt lat="45.35006" lon="5.63321">
        <ele>548.09</ele>
        <time>2020-02-16T08:54:02Z</time>
      </trkpt>
      <trkpt lat="45.35026" lon="5.6334">
        <ele>547.13</ele>
        <time>2020-02-16T08:54:07Z</time>
      </trkpt>
      <trkpt lat="45.3507" lon="5.63372">
        <ele>545.2</ele>
        <time>2020-02-16T08:54:18Z</time>
      </trkpt>
      <trkpt lat="45.35084" lon="5.63385">
        <ele>545.2</ele>
        <time>2020-02-16T08:54:23Z</time>
      </trkpt>
      <trkpt lat="45.35121" lon="5.63403">
        <ele>545.2</ele>
        <time>2020-02-16T08:54:33Z</time>
      </trkpt>
      <trkpt lat="45.35158" lon="5.6342">
        <ele>542.8</ele>
        <time>2020-02-16T08:54:41Z</time>
      </trkpt>
      <trkpt lat="45.35203" lon="5.63446">
        <ele>540.88</ele>
        <time>2020-02-16T08:54:50Z</time>
      </trkpt>
      <trkpt lat="45.35222" lon="5.63451">
        <ele>540.88</ele>
        <time>2020-02-16T08:54:54Z</time>
      </trkpt>
      <trkpt lat="45.35256" lon="5.63467">
        <ele>540.88</ele>
        <time>2020-02-16T08:55:02Z</time>
      </trkpt>
      <trkpt lat="45.35315" lon="5.63494">
        <ele>537.99</ele>
        <time>2020-02-16T08:55:14Z</time>
      </trkpt>
      <trkpt lat="45.35325" lon="5.63501">
        <ele>537.99</ele>
        <time>2020-02-16T08:55:16Z</time>
      </trkpt>
      <trkpt lat="45.3534" lon="5.63512">
        <ele>537.99</ele>
        <time>2020-02-16T08:55:19Z</time>
      </trkpt>
      <trkpt lat="45.35355" lon="5.63527">
        <ele>537.03</ele>
        <time>2020-02-16T08:55:22Z</time>
      </trkpt>
      <trkpt lat="45.35376" lon="5.63542">
        <ele>536.07</ele>
        <time>2020-02-16T08:55:26Z</time>
      </trkpt>
      <trkpt lat="45.35385" lon="5.63547">
        <ele>536.07</ele>
        <time>2020-02-16T08:55:28Z</time>
      </trkpt>
      <trkpt lat="45.35406" lon="5.63551">
        <ele>535.11</ele>
        <time>2020-02-16T08:55:32Z</time>
      </trkpt>
      <trkpt lat="45.35425" lon="5.6355">
        <ele>534.15</ele>
        <time>2020-02-16T08:55:35Z</time>
      </trkpt>
      <trkpt lat="45.35436" lon="5.6355">
        <ele>533.19</ele>
        <time>2020-02-16T08:55:37Z</time>
      </trkpt>
      <trkpt lat="45.35464" lon="5.63559">
        <ele>533.19</ele>
        <time>2020-02-16T08:55:42Z</time>
      </trkpt>
      <trkpt lat="45.35516" lon="5.63588">
        <ele>530.79</ele>
        <time>2020-02-16T08:55:53Z</time>
      </trkpt>
      <trkpt lat="45.35548" lon="5.6362">
        <ele>529.82</ele>
        <time>2020-02-16T08:56:02Z</time>
      </trkpt>
      <trkpt lat="45.35589" lon="5.63639">
        <ele>528.86</ele>
        <time>2020-02-16T08:56:11Z</time>
      </trkpt>
      <trkpt lat="45.35599" lon="5.63652">
        <ele>529.82</ele>
        <time>2020-02-16T08:56:16Z</time>
      </trkpt>
      <trkpt lat="45.35603" lon="5.6366">
        <ele>530.79</ele>
        <time>2020-02-16T08:56:20Z</time>
      </trkpt>
      <trkpt lat="45.3561" lon="5.6367">
        <ele>532.23</ele>
        <time>2020-02-16T08:56:25Z</time>
      </trkpt>
      <trkpt lat="45.35625" lon="5.63687">
        <ele>536.07</ele>
        <time>2020-02-16T08:56:37Z</time>
      </trkpt>
      <trkpt lat="45.35633" lon="5.63692">
        <ele>536.07</ele>
        <time>2020-02-16T08:56:50Z</time>
      </trkpt>
      <trkpt lat="45.35637" lon="5.63689">
        <ele>536.07</ele>
        <time>2020-02-16T08:57:40Z</time>
      </trkpt>
      <trkpt lat="45.35637" lon="5.63689">
        <ele>536.07</ele>
        <time>2020-02-16T08:57:49Z</time>
      </trkpt>
      <trkpt lat="45.35664" lon="5.63721">
        <ele>535.11</ele>
        <time>2020-02-16T08:58:01Z</time>
      </trkpt>
      <trkpt lat="45.35689" lon="5.63761">
        <ele>534.15</ele>
        <time>2020-02-16T08:58:12Z</time>
      </trkpt>
      <trkpt lat="45.35708" lon="5.63791">
        <ele>533.19</ele>
        <time>2020-02-16T08:58:19Z</time>
      </trkpt>
      <trkpt lat="45.35744" lon="5.63819">
        <ele>532.23</ele>
        <time>2020-02-16T08:58:28Z</time>
      </trkpt>
      <trkpt lat="45.35748" lon="5.63833">
        <ele>532.23</ele>
        <time>2020-02-16T08:58:32Z</time>
      </trkpt>
      <trkpt lat="45.3575" lon="5.63836">
        <ele>532.23</ele>
        <time>2020-02-16T08:58:34Z</time>
      </trkpt>
      <trkpt lat="45.35766" lon="5.63871">
        <ele>533.19</ele>
        <time>2020-02-16T08:58:45Z</time>
      </trkpt>
      <trkpt lat="45.35777" lon="5.63898">
        <ele>535.11</ele>
        <time>2020-02-16T08:58:56Z</time>
      </trkpt>
      <trkpt lat="45.35779" lon="5.63907">
        <ele>536.07</ele>
        <time>2020-02-16T08:59:00Z</time>
      </trkpt>
      <trkpt lat="45.35785" lon="5.63917">
        <ele>536.07</ele>
        <time>2020-02-16T08:59:05Z</time>
      </trkpt>
      <trkpt lat="45.35791" lon="5.63926">
        <ele>536.07</ele>
        <time>2020-02-16T08:59:09Z</time>
      </trkpt>
      <trkpt lat="45.35801" lon="5.63942">
        <ele>537.03</ele>
        <time>2020-02-16T08:59:17Z</time>
      </trkpt>
      <trkpt lat="45.3583" lon="5.63975">
        <ele>536.07</ele>
        <time>2020-02-16T08:59:29Z</time>
      </trkpt>
      <trkpt lat="45.35845" lon="5.63999">
        <ele>535.11</ele>
        <time>2020-02-16T08:59:35Z</time>
      </trkpt>
      <trkpt lat="45.35852" lon="5.64011">
        <ele>535.11</ele>
        <time>2020-02-16T08:59:39Z</time>
      </trkpt>
      <trkpt lat="45.35873" lon="5.64019">
        <ele>532.23</ele>
        <time>2020-02-16T08:59:46Z</time>
      </trkpt>
      <trkpt lat="45.35882" lon="5.64019">
        <ele>528.86</ele>
        <time>2020-02-16T08:59:49Z</time>
      </trkpt>
      <trkpt lat="45.35889" lon="5.64013">
        <ele>525.98</ele>
        <time>2020-02-16T08:59:53Z</time>
      </trkpt>
      <trkpt lat="45.35894" lon="5.64016">
        <ele>525.98</ele>
        <time>2020-02-16T08:59:55Z</time>
      </trkpt>
      <trkpt lat="45.35899" lon="5.64019">
        <ele>525.02</ele>
        <time>2020-02-16T08:59:57Z</time>
      </trkpt>
      <trkpt lat="45.35912" lon="5.64027">
        <ele>525.98</ele>
        <time>2020-02-16T09:00:10Z</time>
      </trkpt>
      <trkpt lat="45.35917" lon="5.64024">
        <ele>525.98</ele>
        <time>2020-02-16T09:00:38Z</time>
      </trkpt>
      <trkpt lat="45.35921" lon="5.64027">
        <ele>525.98</ele>
        <time>2020-02-16T09:00:53Z</time>
      </trkpt>
      <trkpt lat="45.35931" lon="5.64041">
        <ele>525.98</ele>
        <time>2020-02-16T09:00:59Z</time>
      </trkpt>
      <trkpt lat="45.35952" lon="5.64078">
        <ele>528.86</ele>
        <time>2020-02-16T09:01:14Z</time>
      </trkpt>
      <trkpt lat="45.35961" lon="5.64102">
        <ele>532.23</ele>
        <time>2020-02-16T09:01:25Z</time>
      </trkpt>
      <trkpt lat="45.35983" lon="5.64131">
        <ele>530.79</ele>
        <time>2020-02-16T09:01:35Z</time>
      </trkpt>
      <trkpt lat="45.36007" lon="5.64172">
        <ele>533.19</ele>
        <time>2020-02-16T09:01:49Z</time>
      </trkpt>
      <trkpt lat="45.36013" lon="5.64185">
        <ele>533.19</ele>
        <time>2020-02-16T09:01:52Z</time>
      </trkpt>
      <trkpt lat="45.36023" lon="5.64199">
        <ele>532.23</ele>
        <time>2020-02-16T09:01:55Z</time>
      </trkpt>
      <trkpt lat="45.36045" lon="5.64221">
        <ele>529.82</ele>
        <time>2020-02-16T09:02:00Z</time>
      </trkpt>
      <trkpt lat="45.36066" lon="5.64256">
        <ele>526.94</ele>
        <time>2020-02-16T09:02:09Z</time>
      </trkpt>
      <trkpt lat="45.36081" lon="5.64264">
        <ele>525.02</ele>
        <time>2020-02-16T09:02:24Z</time>
      </trkpt>
      <trkpt lat="45.36095" lon="5.6428">
        <ele>525.98</ele>
        <time>2020-02-16T09:02:40Z</time>
      </trkpt>
      <trkpt lat="45.36105" lon="5.64287">
        <ele>525.02</ele>
        <time>2020-02-16T09:02:44Z</time>
      </trkpt>
      <trkpt lat="45.36127" lon="5.64299">
        <ele>523.09</ele>
        <time>2020-02-16T09:02:51Z</time>
      </trkpt>
      <trkpt lat="45.36145" lon="5.6431">
        <ele>522.13</ele>
        <time>2020-02-16T09:02:55Z</time>
      </trkpt>
      <trkpt lat="45.36184" lon="5.64337">
        <ele>521.17</ele>
        <time>2020-02-16T09:03:05Z</time>
      </trkpt>
      <trkpt lat="45.36204" lon="5.64349">
        <ele>521.17</ele>
        <time>2020-02-16T09:03:17Z</time>
      </trkpt>
      <trkpt lat="45.36224" lon="5.64373">
        <ele>521.17</ele>
        <time>2020-02-16T09:03:27Z</time>
      </trkpt>
      <trkpt lat="45.36233" lon="5.6438">
        <ele>521.17</ele>
        <time>2020-02-16T09:03:34Z</time>
      </trkpt>
      <trkpt lat="45.3626" lon="5.64395">
        <ele>521.17</ele>
        <time>2020-02-16T09:03:46Z</time>
      </trkpt>
      <trkpt lat="45.3629" lon="5.64414">
        <ele>520.21</ele>
        <time>2020-02-16T09:03:56Z</time>
      </trkpt>
      <trkpt lat="45.36306" lon="5.64432">
        <ele>520.21</ele>
        <time>2020-02-16T09:04:06Z</time>
      </trkpt>
      <trkpt lat="45.36326" lon="5.64456">
        <ele>517.81</ele>
        <time>2020-02-16T09:04:17Z</time>
      </trkpt>
      <trkpt lat="45.36345" lon="5.64482">
        <ele>516.85</ele>
        <time>2020-02-16T09:04:29Z</time>
      </trkpt>
      <trkpt lat="45.36354" lon="5.64492">
        <ele>517.81</ele>
        <time>2020-02-16T09:04:34Z</time>
      </trkpt>
      <trkpt lat="45.36367" lon="5.64507">
        <ele>517.81</ele>
        <time>2020-02-16T09:04:41Z</time>
      </trkpt>
      <trkpt lat="45.3638" lon="5.64521">
        <ele>516.85</ele>
        <time>2020-02-16T09:04:47Z</time>
      </trkpt>
      <trkpt lat="45.36403" lon="5.6456">
        <ele>516.85</ele>
        <time>2020-02-16T09:04:59Z</time>
      </trkpt>
      <trkpt lat="45.36408" lon="5.64566">
        <ele>517.81</ele>
        <time>2020-02-16T09:05:01Z</time>
      </trkpt>
      <trkpt lat="45.36432" lon="5.64593">
        <ele>517.81</ele>
        <time>2020-02-16T09:05:13Z</time>
      </trkpt>
      <trkpt lat="45.36451" lon="5.64609">
        <ele>517.81</ele>
        <time>2020-02-16T09:05:24Z</time>
      </trkpt>
      <trkpt lat="45.36462" lon="5.64622">
        <ele>518.77</ele>
        <time>2020-02-16T09:05:31Z</time>
      </trkpt>
      <trkpt lat="45.36473" lon="5.64641">
        <ele>520.21</ele>
        <time>2020-02-16T09:05:39Z</time>
      </trkpt>
      <trkpt lat="45.36485" lon="5.64661">
        <ele>521.17</ele>
        <time>2020-02-16T09:05:49Z</time>
      </trkpt>
      <trkpt lat="45.36488" lon="5.6467">
        <ele>522.13</ele>
        <time>2020-02-16T09:05:53Z</time>
      </trkpt>
      <trkpt lat="45.36492" lon="5.64676">
        <ele>522.13</ele>
        <time>2020-02-16T09:05:57Z</time>
      </trkpt>
      <trkpt lat="45.36497" lon="5.64683">
        <ele>523.09</ele>
        <time>2020-02-16T09:06:01Z</time>
      </trkpt>
      <trkpt lat="45.36513" lon="5.64707">
        <ele>524.06</ele>
        <time>2020-02-16T09:06:15Z</time>
      </trkpt>
      <trkpt lat="45.36522" lon="5.64718">
        <ele>525.02</ele>
        <time>2020-02-16T09:06:21Z</time>
      </trkpt>
      <trkpt lat="45.36546" lon="5.6475">
        <ele>525.02</ele>
        <time>2020-02-16T09:06:38Z</time>
      </trkpt>
      <trkpt lat="45.36571" lon="5.64775">
        <ele>524.06</ele>
        <time>2020-02-16T09:06:47Z</time>
      </trkpt>
      <trkpt lat="45.36579" lon="5.6479">
        <ele>524.06</ele>
        <time>2020-02-16T09:06:53Z</time>
      </trkpt>
      <trkpt lat="45.36587" lon="5.64795">
        <ele>524.06</ele>
        <time>2020-02-16T09:06:57Z</time>
      </trkpt>
      <trkpt lat="45.36611" lon="5.64809">
        <ele>525.02</ele>
        <time>2020-02-16T09:07:10Z</time>
      </trkpt>
      <trkpt lat="45.36635" lon="5.6484">
        <ele>524.06</ele>
        <time>2020-02-16T09:07:23Z</time>
      </trkpt>
      <trkpt lat="45.36645" lon="5.6485">
        <ele>520.21</ele>
        <time>2020-02-16T09:07:27Z</time>
      </trkpt>
      <trkpt lat="45.3665" lon="5.64857">
        <ele>517.81</ele>
        <time>2020-02-16T09:07:29Z</time>
      </trkpt>
      <trkpt lat="45.36671" lon="5.64872">
        <ele>513.96</ele>
        <time>2020-02-16T09:07:33Z</time>
      </trkpt>
      <trkpt lat="45.36677" lon="5.64874">
        <ele>512.04</ele>
        <time>2020-02-16T09:07:34Z</time>
      </trkpt>
      <trkpt lat="45.3669" lon="5.64877">
        <ele>510.12</ele>
        <time>2020-02-16T09:07:36Z</time>
      </trkpt>
      <trkpt lat="45.36713" lon="5.64887">
        <ele>507.23</ele>
        <time>2020-02-16T09:07:40Z</time>
      </trkpt>
      <trkpt lat="45.36749" lon="5.64901">
        <ele>505.79</ele>
        <time>2020-02-16T09:07:50Z</time>
      </trkpt>
      <trkpt lat="45.36752" lon="5.64903">
        <ele>505.79</ele>
        <time>2020-02-16T09:07:52Z</time>
      </trkpt>
      <trkpt lat="45.36763" lon="5.64906">
        <ele>501.95</ele>
        <time>2020-02-16T09:07:58Z</time>
      </trkpt>
      <trkpt lat="45.36775" lon="5.64911">
        <ele>498.1</ele>
        <time>2020-02-16T09:08:03Z</time>
      </trkpt>
      <trkpt lat="45.36791" lon="5.64921">
        <ele>493.77</ele>
        <time>2020-02-16T09:08:07Z</time>
      </trkpt>
      <trkpt lat="45.36803" lon="5.64928">
        <ele>490.89</ele>
        <time>2020-02-16T09:08:11Z</time>
      </trkpt>
      <trkpt lat="45.36815" lon="5.64938">
        <ele>488.01</ele>
        <time>2020-02-16T09:08:15Z</time>
      </trkpt>
      <trkpt lat="45.36829" lon="5.64954">
        <ele>484.16</ele>
        <time>2020-02-16T09:08:20Z</time>
      </trkpt>
      <trkpt lat="45.36841" lon="5.6497">
        <ele>480.8</ele>
        <time>2020-02-16T09:08:26Z</time>
      </trkpt>
      <trkpt lat="45.36843" lon="5.64973">
        <ele>479.84</ele>
        <time>2020-02-16T09:08:27Z</time>
      </trkpt>
      <trkpt lat="45.36865" lon="5.64992">
        <ele>475.99</ele>
        <time>2020-02-16T09:08:33Z</time>
      </trkpt>
      <trkpt lat="45.36871" lon="5.65">
        <ele>475.03</ele>
        <time>2020-02-16T09:08:35Z</time>
      </trkpt>
      <trkpt lat="45.3688" lon="5.65009">
        <ele>473.11</ele>
        <time>2020-02-16T09:08:37Z</time>
      </trkpt>
      <trkpt lat="45.36889" lon="5.6502">
        <ele>472.14</ele>
        <time>2020-02-16T09:08:39Z</time>
      </trkpt>
      <trkpt lat="45.369" lon="5.65044">
        <ele>470.22</ele>
        <time>2020-02-16T09:08:43Z</time>
      </trkpt>
      <trkpt lat="45.36906" lon="5.6506">
        <ele>474.07</ele>
        <time>2020-02-16T09:08:52Z</time>
      </trkpt>
      <trkpt lat="45.36906" lon="5.65062">
        <ele>474.07</ele>
        <time>2020-02-16T09:08:53Z</time>
      </trkpt>
      <trkpt lat="45.36911" lon="5.65089">
        <ele>477.91</ele>
        <time>2020-02-16T09:09:06Z</time>
      </trkpt>
      <trkpt lat="45.36919" lon="5.65122">
        <ele>477.91</ele>
        <time>2020-02-16T09:09:20Z</time>
      </trkpt>
      <trkpt lat="45.3692" lon="5.65125">
        <ele>477.91</ele>
        <time>2020-02-16T09:09:22Z</time>
      </trkpt>
      <trkpt lat="45.36936" lon="5.65149">
        <ele>477.91</ele>
        <time>2020-02-16T09:09:33Z</time>
      </trkpt>
      <trkpt lat="45.36968" lon="5.65172">
        <ele>474.07</ele>
        <time>2020-02-16T09:09:45Z</time>
      </trkpt>
      <trkpt lat="45.36997" lon="5.65194">
        <ele>471.18</ele>
        <time>2020-02-16T09:09:55Z</time>
      </trkpt>
      <trkpt lat="45.3702" lon="5.6522">
        <ele>467.82</ele>
        <time>2020-02-16T09:10:06Z</time>
      </trkpt>
      <trkpt lat="45.37033" lon="5.65225">
        <ele>465.9</ele>
        <time>2020-02-16T09:10:12Z</time>
      </trkpt>
      <trkpt lat="45.37038" lon="5.65222">
        <ele>463.01</ele>
        <time>2020-02-16T09:10:26Z</time>
      </trkpt>
      <trkpt lat="45.37042" lon="5.65222">
        <ele>463.01</ele>
        <time>2020-02-16T09:11:10Z</time>
      </trkpt>
      <trkpt lat="45.37044" lon="5.6522">
        <ele>463.01</ele>
        <time>2020-02-16T09:11:33Z</time>
      </trkpt>
      <trkpt lat="45.37052" lon="5.65215">
        <ele>463.01</ele>
        <time>2020-02-16T09:11:38Z</time>
      </trkpt>
      <trkpt lat="45.37078" lon="5.6518">
        <ele>460.13</ele>
        <time>2020-02-16T09:11:50Z</time>
      </trkpt>
      <trkpt lat="45.37093" lon="5.65161">
        <ele>456.76</ele>
        <time>2020-02-16T09:11:55Z</time>
      </trkpt>
      <trkpt lat="45.37106" lon="5.65152">
        <ele>453.88</ele>
        <time>2020-02-16T09:11:59Z</time>
      </trkpt>
      <trkpt lat="45.37115" lon="5.65149">
        <ele>450.03</ele>
        <time>2020-02-16T09:12:02Z</time>
      </trkpt>
      <trkpt lat="45.37125" lon="5.65139">
        <ele>447.15</ele>
        <time>2020-02-16T09:12:05Z</time>
      </trkpt>
      <trkpt lat="45.37143" lon="5.65123">
        <ele>442.82</ele>
        <time>2020-02-16T09:12:09Z</time>
      </trkpt>
      <trkpt lat="45.3715" lon="5.65117">
        <ele>439.94</ele>
        <time>2020-02-16T09:12:12Z</time>
      </trkpt>
      <trkpt lat="45.37157" lon="5.65106">
        <ele>437.06</ele>
        <time>2020-02-16T09:12:17Z</time>
      </trkpt>
      <trkpt lat="45.37172" lon="5.65093">
        <ele>435.13</ele>
        <time>2020-02-16T09:12:22Z</time>
      </trkpt>
      <trkpt lat="45.37203" lon="5.65074">
        <ele>430.81</ele>
        <time>2020-02-16T09:12:29Z</time>
      </trkpt>
      <trkpt lat="45.37224" lon="5.65054">
        <ele>426.96</ele>
        <time>2020-02-16T09:12:35Z</time>
      </trkpt>
      <trkpt lat="45.37234" lon="5.65054">
        <ele>426</ele>
        <time>2020-02-16T09:12:39Z</time>
      </trkpt>
      <trkpt lat="45.37255" lon="5.65097">
        <ele>426</ele>
        <time>2020-02-16T09:12:57Z</time>
      </trkpt>
      <trkpt lat="45.37269" lon="5.65152">
        <ele>425.04</ele>
        <time>2020-02-16T09:13:12Z</time>
      </trkpt>
      <trkpt lat="45.37293" lon="5.65249">
        <ele>425.04</ele>
        <time>2020-02-16T09:13:34Z</time>
      </trkpt>
      <trkpt lat="45.37314" lon="5.65327">
        <ele>426</ele>
        <time>2020-02-16T09:13:52Z</time>
      </trkpt>
      <trkpt lat="45.37323" lon="5.6538">
        <ele>426</ele>
        <time>2020-02-16T09:14:04Z</time>
      </trkpt>
      <trkpt lat="45.37325" lon="5.65386">
        <ele>426</ele>
        <time>2020-02-16T09:14:05Z</time>
      </trkpt>
      <trkpt lat="45.37326" lon="5.65392">
        <ele>425.04</ele>
        <time>2020-02-16T09:14:06Z</time>
      </trkpt>
      <trkpt lat="45.37337" lon="5.65457">
        <ele>422.16</ele>
        <time>2020-02-16T09:14:14Z</time>
      </trkpt>
      <trkpt lat="45.37342" lon="5.65498">
        <ele>418.79</ele>
        <time>2020-02-16T09:14:18Z</time>
      </trkpt>
      <trkpt lat="45.37347" lon="5.65541">
        <ele>414.95</ele>
        <time>2020-02-16T09:14:22Z</time>
      </trkpt>
      <trkpt lat="45.37351" lon="5.65562">
        <ele>413.98</ele>
        <time>2020-02-16T09:14:24Z</time>
      </trkpt>
      <trkpt lat="45.37364" lon="5.65608">
        <ele>410.14</ele>
        <time>2020-02-16T09:14:28Z</time>
      </trkpt>
      <trkpt lat="45.37368" lon="5.6563">
        <ele>409.18</ele>
        <time>2020-02-16T09:14:30Z</time>
      </trkpt>
      <trkpt lat="45.3737" lon="5.65651">
        <ele>408.22</ele>
        <time>2020-02-16T09:14:32Z</time>
      </trkpt>
      <trkpt lat="45.37372" lon="5.65659">
        <ele>408.22</ele>
        <time>2020-02-16T09:14:33Z</time>
      </trkpt>
      <trkpt lat="45.37379" lon="5.65687">
        <ele>408.22</ele>
        <time>2020-02-16T09:14:37Z</time>
      </trkpt>
      <trkpt lat="45.37381" lon="5.65694">
        <ele>409.18</ele>
        <time>2020-02-16T09:14:38Z</time>
      </trkpt>
      <trkpt lat="45.37384" lon="5.65699">
        <ele>409.18</ele>
        <time>2020-02-16T09:14:39Z</time>
      </trkpt>
      <trkpt lat="45.37387" lon="5.65703">
        <ele>409.18</ele>
        <time>2020-02-16T09:14:40Z</time>
      </trkpt>
      <trkpt lat="45.3739" lon="5.65705">
        <ele>409.18</ele>
        <time>2020-02-16T09:14:41Z</time>
      </trkpt>
      <trkpt lat="45.37392" lon="5.65707">
        <ele>410.14</ele>
        <time>2020-02-16T09:14:42Z</time>
      </trkpt>
      <trkpt lat="45.37396" lon="5.65707">
        <ele>410.14</ele>
        <time>2020-02-16T09:14:43Z</time>
      </trkpt>
      <trkpt lat="45.37398" lon="5.65707">
        <ele>410.14</ele>
        <time>2020-02-16T09:14:44Z</time>
      </trkpt>
      <trkpt lat="45.37401" lon="5.65707">
        <ele>411.1</ele>
        <time>2020-02-16T09:14:45Z</time>
      </trkpt>
      <trkpt lat="45.37403" lon="5.65706">
        <ele>411.1</ele>
        <time>2020-02-16T09:14:46Z</time>
      </trkpt>
      <trkpt lat="45.37431" lon="5.65694">
        <ele>413.98</ele>
        <time>2020-02-16T09:14:59Z</time>
      </trkpt>
      <trkpt lat="45.37453" lon="5.65693">
        <ele>416.87</ele>
        <time>2020-02-16T09:15:10Z</time>
      </trkpt>
      <trkpt lat="45.37479" lon="5.6569">
        <ele>420.23</ele>
        <time>2020-02-16T09:15:25Z</time>
      </trkpt>
      <trkpt lat="45.37506" lon="5.65668">
        <ele>423.12</ele>
        <time>2020-02-16T09:15:42Z</time>
      </trkpt>
      <trkpt lat="45.37537" lon="5.65639">
        <ele>426</ele>
        <time>2020-02-16T09:16:01Z</time>
      </trkpt>
      <trkpt lat="45.37575" lon="5.65608">
        <ele>428.89</ele>
        <time>2020-02-16T09:16:23Z</time>
      </trkpt>
      <trkpt lat="45.37605" lon="5.65579">
        <ele>431.77</ele>
        <time>2020-02-16T09:16:42Z</time>
      </trkpt>
      <trkpt lat="45.3764" lon="5.65546">
        <ele>433.21</ele>
        <time>2020-02-16T09:17:00Z</time>
      </trkpt>
      <trkpt lat="45.37672" lon="5.65503">
        <ele>436.1</ele>
        <time>2020-02-16T09:17:20Z</time>
      </trkpt>
      <trkpt lat="45.37703" lon="5.6546">
        <ele>438.98</ele>
        <time>2020-02-16T09:17:40Z</time>
      </trkpt>
      <trkpt lat="45.37731" lon="5.65413">
        <ele>441.86</ele>
        <time>2020-02-16T09:18:00Z</time>
      </trkpt>
      <trkpt lat="45.3775" lon="5.65354">
        <ele>443.79</ele>
        <time>2020-02-16T09:18:21Z</time>
      </trkpt>
      <trkpt lat="45.37756" lon="5.65301">
        <ele>447.15</ele>
        <time>2020-02-16T09:18:39Z</time>
      </trkpt>
      <trkpt lat="45.37766" lon="5.65251">
        <ele>450.03</ele>
        <time>2020-02-16T09:18:58Z</time>
      </trkpt>
      <trkpt lat="45.37768" lon="5.65251">
        <ele>451</ele>
        <time>2020-02-16T09:19:10Z</time>
      </trkpt>
      <trkpt lat="45.37769" lon="5.65252">
        <ele>450.03</ele>
        <time>2020-02-16T09:19:48Z</time>
      </trkpt>
      <trkpt lat="45.3777" lon="5.65251">
        <ele>450.03</ele>
        <time>2020-02-16T09:21:17Z</time>
      </trkpt>
      <trkpt lat="45.37771" lon="5.65251">
        <ele>450.03</ele>
        <time>2020-02-16T09:21:36Z</time>
      </trkpt>
      <trkpt lat="45.37772" lon="5.6525">
        <ele>450.03</ele>
        <time>2020-02-16T09:21:53Z</time>
      </trkpt>
      <trkpt lat="45.37775" lon="5.6525">
        <ele>450.03</ele>
        <time>2020-02-16T09:21:55Z</time>
      </trkpt>
      <trkpt lat="45.37777" lon="5.65252">
        <ele>450.03</ele>
        <time>2020-02-16T09:21:56Z</time>
      </trkpt>
      <trkpt lat="45.37778" lon="5.65254">
        <ele>450.03</ele>
        <time>2020-02-16T09:21:57Z</time>
      </trkpt>
      <trkpt lat="45.3778" lon="5.65256">
        <ele>450.03</ele>
        <time>2020-02-16T09:21:58Z</time>
      </trkpt>
      <trkpt lat="45.37797" lon="5.65236">
        <ele>450.03</ele>
        <time>2020-02-16T09:22:07Z</time>
      </trkpt>
      <trkpt lat="45.37784" lon="5.65211">
        <ele>449.07</ele>
        <time>2020-02-16T09:22:14Z</time>
      </trkpt>
      <trkpt lat="45.37783" lon="5.65207">
        <ele>449.07</ele>
        <time>2020-02-16T09:22:15Z</time>
      </trkpt>
      <trkpt lat="45.37782" lon="5.65203">
        <ele>449.07</ele>
        <time>2020-02-16T09:22:16Z</time>
      </trkpt>
      <trkpt lat="45.37781" lon="5.65198">
        <ele>449.07</ele>
        <time>2020-02-16T09:22:17Z</time>
      </trkpt>
      <trkpt lat="45.37781" lon="5.65146">
        <ele>448.11</ele>
        <time>2020-02-16T09:22:30Z</time>
      </trkpt>
      <trkpt lat="45.37796" lon="5.65088">
        <ele>448.11</ele>
        <time>2020-02-16T09:22:44Z</time>
      </trkpt>
      <trkpt lat="45.37831" lon="5.65013">
        <ele>448.11</ele>
        <time>2020-02-16T09:23:02Z</time>
      </trkpt>
      <trkpt lat="45.37866" lon="5.64963">
        <ele>447.15</ele>
        <time>2020-02-16T09:23:18Z</time>
      </trkpt>
      <trkpt lat="45.37914" lon="5.64907">
        <ele>447.15</ele>
        <time>2020-02-16T09:23:39Z</time>
      </trkpt>
      <trkpt lat="45.37942" lon="5.64867">
        <ele>447.15</ele>
        <time>2020-02-16T09:23:53Z</time>
      </trkpt>
      <trkpt lat="45.37946" lon="5.64821">
        <ele>446.19</ele>
        <time>2020-02-16T09:24:04Z</time>
      </trkpt>
      <trkpt lat="45.37954" lon="5.64755">
        <ele>446.19</ele>
        <time>2020-02-16T09:24:19Z</time>
      </trkpt>
      <trkpt lat="45.37959" lon="5.64679">
        <ele>445.23</ele>
        <time>2020-02-16T09:24:36Z</time>
      </trkpt>
      <trkpt lat="45.37961" lon="5.64616">
        <ele>445.23</ele>
        <time>2020-02-16T09:24:52Z</time>
      </trkpt>
      <trkpt lat="45.37959" lon="5.64613">
        <ele>445.23</ele>
        <time>2020-02-16T09:24:53Z</time>
      </trkpt>
      <trkpt lat="45.37956" lon="5.64612">
        <ele>445.23</ele>
        <time>2020-02-16T09:24:54Z</time>
      </trkpt>
      <trkpt lat="45.37954" lon="5.64611">
        <ele>445.23</ele>
        <time>2020-02-16T09:24:55Z</time>
      </trkpt>
      <trkpt lat="45.37951" lon="5.6461">
        <ele>445.23</ele>
        <time>2020-02-16T09:24:56Z</time>
      </trkpt>
      <trkpt lat="45.37949" lon="5.64609">
        <ele>445.23</ele>
        <time>2020-02-16T09:24:57Z</time>
      </trkpt>
      <trkpt lat="45.37946" lon="5.64607">
        <ele>445.23</ele>
        <time>2020-02-16T09:24:58Z</time>
      </trkpt>
      <trkpt lat="45.37916" lon="5.6458">
        <ele>443.79</ele>
        <time>2020-02-16T09:25:13Z</time>
      </trkpt>
      <trkpt lat="45.37919" lon="5.64573">
        <ele>445.23</ele>
        <time>2020-02-16T09:25:26Z</time>
      </trkpt>
      <trkpt lat="45.3792" lon="5.64569">
        <ele>445.23</ele>
        <time>2020-02-16T09:25:37Z</time>
      </trkpt>
      <trkpt lat="45.3792" lon="5.64568">
        <ele>445.23</ele>
        <time>2020-02-16T09:25:56Z</time>
      </trkpt>
      <trkpt lat="45.37921" lon="5.64567">
        <ele>445.23</ele>
        <time>2020-02-16T09:26:27Z</time>
      </trkpt>
      <trkpt lat="45.3792" lon="5.64566">
        <ele>445.23</ele>
        <time>2020-02-16T09:26:49Z</time>
      </trkpt>
      <trkpt lat="45.37923" lon="5.64566">
        <ele>445.23</ele>
        <time>2020-02-16T09:27:24Z</time>
      </trkpt>
      <trkpt lat="45.37927" lon="5.64564">
        <ele>445.23</ele>
        <time>2020-02-16T09:27:49Z</time>
      </trkpt>
      <trkpt lat="45.37927" lon="5.64555">
        <ele>445.23</ele>
        <time>2020-02-16T09:27:53Z</time>
      </trkpt>
      <trkpt lat="45.37927" lon="5.64552">
        <ele>445.23</ele>
        <time>2020-02-16T09:27:54Z</time>
      </trkpt>
      <trkpt lat="45.37926" lon="5.64548">
        <ele>445.23</ele>
        <time>2020-02-16T09:27:55Z</time>
      </trkpt>
      <trkpt lat="45.37926" lon="5.64544">
        <ele>445.23</ele>
        <time>2020-02-16T09:27:56Z</time>
      </trkpt>
      <trkpt lat="45.37924" lon="5.6454">
        <ele>445.23</ele>
        <time>2020-02-16T09:27:57Z</time>
      </trkpt>
      <trkpt lat="45.37922" lon="5.64536">
        <ele>445.23</ele>
        <time>2020-02-16T09:27:58Z</time>
      </trkpt>
      <trkpt lat="45.37921" lon="5.64533">
        <ele>445.23</ele>
        <time>2020-02-16T09:27:59Z</time>
      </trkpt>
      <trkpt lat="45.37918" lon="5.64529">
        <ele>445.23</ele>
        <time>2020-02-16T09:28:00Z</time>
      </trkpt>
      <trkpt lat="45.37907" lon="5.64501">
        <ele>445.23</ele>
        <time>2020-02-16T09:28:09Z</time>
      </trkpt>
      <trkpt lat="45.37908" lon="5.64499">
        <ele>445.23</ele>
        <time>2020-02-16T09:28:10Z</time>
      </trkpt>
      <trkpt lat="45.3791" lon="5.64496">
        <ele>445.23</ele>
        <time>2020-02-16T09:28:11Z</time>
      </trkpt>
      <trkpt lat="45.37911" lon="5.64493">
        <ele>445.23</ele>
        <time>2020-02-16T09:28:12Z</time>
      </trkpt>
      <trkpt lat="45.37913" lon="5.64489">
        <ele>445.23</ele>
        <time>2020-02-16T09:28:13Z</time>
      </trkpt>
      <trkpt lat="45.37914" lon="5.64485">
        <ele>445.23</ele>
        <time>2020-02-16T09:28:14Z</time>
      </trkpt>
      <trkpt lat="45.37915" lon="5.64481">
        <ele>445.23</ele>
        <time>2020-02-16T09:28:15Z</time>
      </trkpt>
      <trkpt lat="45.37915" lon="5.64477">
        <ele>445.23</ele>
        <time>2020-02-16T09:28:16Z</time>
      </trkpt>
      <trkpt lat="45.37914" lon="5.64473">
        <ele>445.23</ele>
        <time>2020-02-16T09:28:17Z</time>
      </trkpt>
      <trkpt lat="45.37914" lon="5.64469">
        <ele>445.23</ele>
        <time>2020-02-16T09:28:18Z</time>
      </trkpt>
      <trkpt lat="45.37897" lon="5.64403">
        <ele>445.23</ele>
        <time>2020-02-16T09:28:35Z</time>
      </trkpt>
      <trkpt lat="45.37894" lon="5.64359">
        <ele>443.79</ele>
        <time>2020-02-16T09:28:46Z</time>
      </trkpt>
      <trkpt lat="45.37912" lon="5.64297">
        <ele>443.79</ele>
        <time>2020-02-16T09:28:59Z</time>
      </trkpt>
      <trkpt lat="45.37915" lon="5.64292">
        <ele>443.79</ele>
        <time>2020-02-16T09:29:00Z</time>
      </trkpt>
      <trkpt lat="45.37984" lon="5.64219">
        <ele>442.82</ele>
        <time>2020-02-16T09:29:18Z</time>
      </trkpt>
      <trkpt lat="45.37988" lon="5.64217">
        <ele>442.82</ele>
        <time>2020-02-16T09:29:19Z</time>
      </trkpt>
      <trkpt lat="45.38001" lon="5.64208">
        <ele>442.82</ele>
        <time>2020-02-16T09:29:22Z</time>
      </trkpt>
      <trkpt lat="45.38005" lon="5.64204">
        <ele>442.82</ele>
        <time>2020-02-16T09:29:23Z</time>
      </trkpt>
      <trkpt lat="45.38008" lon="5.642">
        <ele>442.82</ele>
        <time>2020-02-16T09:29:24Z</time>
      </trkpt>
      <trkpt lat="45.38016" lon="5.64192">
        <ele>441.86</ele>
        <time>2020-02-16T09:29:26Z</time>
      </trkpt>
      <trkpt lat="45.38018" lon="5.64187">
        <ele>441.86</ele>
        <time>2020-02-16T09:29:27Z</time>
      </trkpt>
      <trkpt lat="45.38019" lon="5.64181">
        <ele>441.86</ele>
        <time>2020-02-16T09:29:28Z</time>
      </trkpt>
      <trkpt lat="45.38017" lon="5.64175">
        <ele>441.86</ele>
        <time>2020-02-16T09:29:29Z</time>
      </trkpt>
      <trkpt lat="45.38014" lon="5.64171">
        <ele>441.86</ele>
        <time>2020-02-16T09:29:30Z</time>
      </trkpt>
      <trkpt lat="45.3801" lon="5.64169">
        <ele>441.86</ele>
        <time>2020-02-16T09:29:31Z</time>
      </trkpt>
      <trkpt lat="45.38006" lon="5.64168">
        <ele>441.86</ele>
        <time>2020-02-16T09:29:32Z</time>
      </trkpt>
      <trkpt lat="45.38002" lon="5.64167">
        <ele>441.86</ele>
        <time>2020-02-16T09:29:33Z</time>
      </trkpt>
      <trkpt lat="45.37936" lon="5.64135">
        <ele>441.86</ele>
        <time>2020-02-16T09:29:50Z</time>
      </trkpt>
      <trkpt lat="45.37901" lon="5.64088">
        <ele>441.86</ele>
        <time>2020-02-16T09:30:03Z</time>
      </trkpt>
      <trkpt lat="45.37916" lon="5.63987">
        <ele>440.9</ele>
        <time>2020-02-16T09:30:21Z</time>
      </trkpt>
      <trkpt lat="45.37933" lon="5.63895">
        <ele>439.94</ele>
        <time>2020-02-16T09:30:41Z</time>
      </trkpt>
      <trkpt lat="45.37956" lon="5.6379">
        <ele>438.98</ele>
        <time>2020-02-16T09:30:58Z</time>
      </trkpt>
      <trkpt lat="45.37988" lon="5.63663">
        <ele>438.02</ele>
        <time>2020-02-16T09:31:16Z</time>
      </trkpt>
      <trkpt lat="45.38044" lon="5.63517">
        <ele>436.1</ele>
        <time>2020-02-16T09:31:34Z</time>
      </trkpt>
      <trkpt lat="45.38067" lon="5.63389">
        <ele>434.17</ele>
        <time>2020-02-16T09:31:48Z</time>
      </trkpt>
      <trkpt lat="45.38065" lon="5.63377">
        <ele>434.17</ele>
        <time>2020-02-16T09:31:49Z</time>
      </trkpt>
      <trkpt lat="45.38062" lon="5.63365">
        <ele>433.21</ele>
        <time>2020-02-16T09:31:50Z</time>
      </trkpt>
      <trkpt lat="45.38059" lon="5.63353">
        <ele>433.21</ele>
        <time>2020-02-16T09:31:51Z</time>
      </trkpt>
      <trkpt lat="45.38054" lon="5.63341">
        <ele>431.77</ele>
        <time>2020-02-16T09:31:52Z</time>
      </trkpt>
      <trkpt lat="45.38033" lon="5.63291">
        <ele>428.89</ele>
        <time>2020-02-16T09:31:56Z</time>
      </trkpt>
      <trkpt lat="45.38016" lon="5.63255">
        <ele>426</ele>
        <time>2020-02-16T09:31:59Z</time>
      </trkpt>
      <trkpt lat="45.38002" lon="5.63218">
        <ele>422.16</ele>
        <time>2020-02-16T09:32:02Z</time>
      </trkpt>
      <trkpt lat="45.38" lon="5.63204">
        <ele>421.19</ele>
        <time>2020-02-16T09:32:03Z</time>
      </trkpt>
      <trkpt lat="45.37999" lon="5.63189">
        <ele>421.19</ele>
        <time>2020-02-16T09:32:04Z</time>
      </trkpt>
      <trkpt lat="45.38" lon="5.63174">
        <ele>420.23</ele>
        <time>2020-02-16T09:32:05Z</time>
      </trkpt>
      <trkpt lat="45.38002" lon="5.63158">
        <ele>418.79</ele>
        <time>2020-02-16T09:32:06Z</time>
      </trkpt>
      <trkpt lat="45.38006" lon="5.63126">
        <ele>414.95</ele>
        <time>2020-02-16T09:32:08Z</time>
      </trkpt>
      <trkpt lat="45.38011" lon="5.63081">
        <ele>412.06</ele>
        <time>2020-02-16T09:32:11Z</time>
      </trkpt>
      <trkpt lat="45.38014" lon="5.63043">
        <ele>411.1</ele>
        <time>2020-02-16T09:32:14Z</time>
      </trkpt>
      <trkpt lat="45.38016" lon="5.63031">
        <ele>411.1</ele>
        <time>2020-02-16T09:32:15Z</time>
      </trkpt>
      <trkpt lat="45.38019" lon="5.6302">
        <ele>411.1</ele>
        <time>2020-02-16T09:32:16Z</time>
      </trkpt>
      <trkpt lat="45.38023" lon="5.63011">
        <ele>412.06</ele>
        <time>2020-02-16T09:32:17Z</time>
      </trkpt>
      <trkpt lat="45.38026" lon="5.63002">
        <ele>412.06</ele>
        <time>2020-02-16T09:32:18Z</time>
      </trkpt>
      <trkpt lat="45.38047" lon="5.62953">
        <ele>414.95</ele>
        <time>2020-02-16T09:32:26Z</time>
      </trkpt>
      <trkpt lat="45.38056" lon="5.62908">
        <ele>417.83</ele>
        <time>2020-02-16T09:32:36Z</time>
      </trkpt>
      <trkpt lat="45.38058" lon="5.6285">
        <ele>421.19</ele>
        <time>2020-02-16T09:32:50Z</time>
      </trkpt>
      <trkpt lat="45.38053" lon="5.62775">
        <ele>424.08</ele>
        <time>2020-02-16T09:33:09Z</time>
      </trkpt>
      <trkpt lat="45.3806" lon="5.6272">
        <ele>426</ele>
        <time>2020-02-16T09:33:24Z</time>
      </trkpt>
      <trkpt lat="45.38067" lon="5.62678">
        <ele>428.89</ele>
        <time>2020-02-16T09:33:38Z</time>
      </trkpt>
      <trkpt lat="45.38073" lon="5.62636">
        <ele>431.77</ele>
        <time>2020-02-16T09:33:52Z</time>
      </trkpt>
      <trkpt lat="45.38077" lon="5.62608">
        <ele>435.13</ele>
        <time>2020-02-16T09:34:02Z</time>
      </trkpt>
      <trkpt lat="45.38077" lon="5.62605">
        <ele>435.13</ele>
        <time>2020-02-16T09:34:03Z</time>
      </trkpt>
      <trkpt lat="45.38078" lon="5.62602">
        <ele>435.13</ele>
        <time>2020-02-16T09:34:04Z</time>
      </trkpt>
      <trkpt lat="45.38103" lon="5.62571">
        <ele>437.06</ele>
        <time>2020-02-16T09:34:19Z</time>
      </trkpt>
      <trkpt lat="45.38164" lon="5.62518">
        <ele>435.13</ele>
        <time>2020-02-16T09:34:35Z</time>
      </trkpt>
      <trkpt lat="45.38218" lon="5.62455">
        <ele>434.17</ele>
        <time>2020-02-16T09:34:51Z</time>
      </trkpt>
      <trkpt lat="45.38229" lon="5.62415">
        <ele>437.06</ele>
        <time>2020-02-16T09:35:03Z</time>
      </trkpt>
      <trkpt lat="45.38261" lon="5.6239">
        <ele>438.98</ele>
        <time>2020-02-16T09:35:16Z</time>
      </trkpt>
      <trkpt lat="45.38309" lon="5.6236">
        <ele>438.98</ele>
        <time>2020-02-16T09:35:34Z</time>
      </trkpt>
      <trkpt lat="45.38357" lon="5.62329">
        <ele>438.02</ele>
        <time>2020-02-16T09:35:50Z</time>
      </trkpt>
      <trkpt lat="45.38389" lon="5.62303">
        <ele>438.02</ele>
        <time>2020-02-16T09:36:02Z</time>
      </trkpt>
      <trkpt lat="45.38389" lon="5.62299">
        <ele>438.02</ele>
        <time>2020-02-16T09:36:03Z</time>
      </trkpt>
      <trkpt lat="45.38388" lon="5.62295">
        <ele>438.02</ele>
        <time>2020-02-16T09:36:04Z</time>
      </trkpt>
      <trkpt lat="45.38387" lon="5.62292">
        <ele>438.02</ele>
        <time>2020-02-16T09:36:05Z</time>
      </trkpt>
      <trkpt lat="45.38386" lon="5.62289">
        <ele>438.02</ele>
        <time>2020-02-16T09:36:06Z</time>
      </trkpt>
      <trkpt lat="45.38385" lon="5.62286">
        <ele>438.02</ele>
        <time>2020-02-16T09:36:07Z</time>
      </trkpt>
      <trkpt lat="45.38386" lon="5.62248">
        <ele>440.9</ele>
        <time>2020-02-16T09:36:21Z</time>
      </trkpt>
      <trkpt lat="45.38406" lon="5.6224">
        <ele>441.86</ele>
        <time>2020-02-16T09:36:33Z</time>
      </trkpt>
      <trkpt lat="45.3843" lon="5.62224">
        <ele>441.86</ele>
        <time>2020-02-16T09:36:45Z</time>
      </trkpt>
      <trkpt lat="45.38464" lon="5.62204">
        <ele>442.82</ele>
        <time>2020-02-16T09:37:03Z</time>
      </trkpt>
      <trkpt lat="45.38486" lon="5.62184">
        <ele>445.23</ele>
        <time>2020-02-16T09:37:17Z</time>
      </trkpt>
      <trkpt lat="45.38505" lon="5.62154">
        <ele>445.23</ele>
        <time>2020-02-16T09:37:28Z</time>
      </trkpt>
      <trkpt lat="45.38529" lon="5.62119">
        <ele>443.79</ele>
        <time>2020-02-16T09:37:39Z</time>
      </trkpt>
      <trkpt lat="45.38561" lon="5.62066">
        <ele>442.82</ele>
        <time>2020-02-16T09:37:52Z</time>
      </trkpt>
      <trkpt lat="45.38584" lon="5.61979">
        <ele>442.82</ele>
        <time>2020-02-16T09:38:12Z</time>
      </trkpt>
      <trkpt lat="45.38603" lon="5.61911">
        <ele>442.82</ele>
        <time>2020-02-16T09:38:29Z</time>
      </trkpt>
      <trkpt lat="45.38606" lon="5.61907">
        <ele>442.82</ele>
        <time>2020-02-16T09:38:31Z</time>
      </trkpt>
      <trkpt lat="45.38648" lon="5.61909">
        <ele>441.86</ele>
        <time>2020-02-16T09:38:42Z</time>
      </trkpt>
      <trkpt lat="45.3869" lon="5.61895">
        <ele>441.86</ele>
        <time>2020-02-16T09:38:55Z</time>
      </trkpt>
      <trkpt lat="45.3869" lon="5.61893">
        <ele>441.86</ele>
        <time>2020-02-16T09:39:12Z</time>
      </trkpt>
      <trkpt lat="45.38691" lon="5.61891">
        <ele>441.86</ele>
        <time>2020-02-16T09:39:40Z</time>
      </trkpt>
      <trkpt lat="45.38689" lon="5.61879">
        <ele>441.86</ele>
        <time>2020-02-16T09:39:47Z</time>
      </trkpt>
      <trkpt lat="45.38689" lon="5.61872">
        <ele>442.82</ele>
        <time>2020-02-16T09:39:53Z</time>
      </trkpt>
      <trkpt lat="45.38688" lon="5.61824">
        <ele>445.23</ele>
        <time>2020-02-16T09:40:13Z</time>
      </trkpt>
      <trkpt lat="45.38686" lon="5.61777">
        <ele>448.11</ele>
        <time>2020-02-16T09:40:34Z</time>
      </trkpt>
      <trkpt lat="45.38688" lon="5.61745">
        <ele>451</ele>
        <time>2020-02-16T09:40:51Z</time>
      </trkpt>
      <trkpt lat="45.38691" lon="5.61709">
        <ele>453.88</ele>
        <time>2020-02-16T09:41:11Z</time>
      </trkpt>
      <trkpt lat="45.38695" lon="5.61668">
        <ele>456.76</ele>
        <time>2020-02-16T09:41:33Z</time>
      </trkpt>
      <trkpt lat="45.38695" lon="5.61637">
        <ele>460.13</ele>
        <time>2020-02-16T09:41:50Z</time>
      </trkpt>
      <trkpt lat="45.38688" lon="5.6161">
        <ele>463.01</ele>
        <time>2020-02-16T09:42:06Z</time>
      </trkpt>
      <trkpt lat="45.38682" lon="5.61588">
        <ele>465.9</ele>
        <time>2020-02-16T09:42:20Z</time>
      </trkpt>
      <trkpt lat="45.38681" lon="5.61561">
        <ele>468.78</ele>
        <time>2020-02-16T09:42:36Z</time>
      </trkpt>
      <trkpt lat="45.3868" lon="5.61536">
        <ele>472.14</ele>
        <time>2020-02-16T09:42:52Z</time>
      </trkpt>
      <trkpt lat="45.3868" lon="5.61509">
        <ele>475.03</ele>
        <time>2020-02-16T09:43:08Z</time>
      </trkpt>
      <trkpt lat="45.38681" lon="5.615">
        <ele>475.99</ele>
        <time>2020-02-16T09:43:14Z</time>
      </trkpt>
      <trkpt lat="45.38681" lon="5.61469">
        <ele>478.87</ele>
        <time>2020-02-16T09:43:33Z</time>
      </trkpt>
      <trkpt lat="45.38682" lon="5.6146">
        <ele>479.84</ele>
        <time>2020-02-16T09:43:39Z</time>
      </trkpt>
      <trkpt lat="45.38682" lon="5.61436">
        <ele>484.16</ele>
        <time>2020-02-16T09:43:54Z</time>
      </trkpt>
      <trkpt lat="45.38682" lon="5.61432">
        <ele>484.16</ele>
        <time>2020-02-16T09:43:56Z</time>
      </trkpt>
      <trkpt lat="45.3868" lon="5.61425">
        <ele>485.12</ele>
        <time>2020-02-16T09:44:01Z</time>
      </trkpt>
      <trkpt lat="45.3868" lon="5.61419">
        <ele>486.08</ele>
        <time>2020-02-16T09:44:05Z</time>
      </trkpt>
      <trkpt lat="45.38674" lon="5.61396">
        <ele>488.97</ele>
        <time>2020-02-16T09:44:20Z</time>
      </trkpt>
      <trkpt lat="45.38666" lon="5.61371">
        <ele>491.85</ele>
        <time>2020-02-16T09:44:38Z</time>
      </trkpt>
      <trkpt lat="45.3867" lon="5.61372">
        <ele>492.81</ele>
        <time>2020-02-16T09:44:49Z</time>
      </trkpt>
      <trkpt lat="45.3867" lon="5.61372">
        <ele>492.81</ele>
        <time>2020-02-16T09:45:10Z</time>
      </trkpt>
      <trkpt lat="45.38671" lon="5.61371">
        <ele>492.81</ele>
        <time>2020-02-16T09:45:39Z</time>
      </trkpt>
      <trkpt lat="45.38671" lon="5.61374">
        <ele>492.81</ele>
        <time>2020-02-16T09:46:30Z</time>
      </trkpt>
      <trkpt lat="45.38671" lon="5.61374">
        <ele>492.81</ele>
        <time>2020-02-16T09:46:57Z</time>
      </trkpt>
      <trkpt lat="45.38672" lon="5.61375">
        <ele>492.81</ele>
        <time>2020-02-16T09:47:41Z</time>
      </trkpt>
      <trkpt lat="45.38672" lon="5.61375">
        <ele>492.81</ele>
        <time>2020-02-16T09:48:00Z</time>
      </trkpt>
      <trkpt lat="45.38672" lon="5.61375">
        <ele>492.81</ele>
        <time>2020-02-16T09:48:39Z</time>
      </trkpt>
      <trkpt lat="45.38672" lon="5.61377">
        <ele>492.81</ele>
        <time>2020-02-16T09:49:02Z</time>
      </trkpt>
      <trkpt lat="45.38672" lon="5.61376">
        <ele>492.81</ele>
        <time>2020-02-16T09:49:35Z</time>
      </trkpt>
      <trkpt lat="45.38674" lon="5.61377">
        <ele>492.81</ele>
        <time>2020-02-16T09:49:47Z</time>
      </trkpt>
      <trkpt lat="45.38678" lon="5.61384">
        <ele>492.81</ele>
        <time>2020-02-16T09:49:51Z</time>
      </trkpt>
      <trkpt lat="45.3868" lon="5.61386">
        <ele>492.81</ele>
        <time>2020-02-16T09:49:52Z</time>
      </trkpt>
      <trkpt lat="45.38682" lon="5.61388">
        <ele>492.81</ele>
        <time>2020-02-16T09:49:53Z</time>
      </trkpt>
      <trkpt lat="45.38685" lon="5.6139">
        <ele>492.81</ele>
        <time>2020-02-16T09:49:54Z</time>
      </trkpt>
      <trkpt lat="45.38709" lon="5.614">
        <ele>492.81</ele>
        <time>2020-02-16T09:50:01Z</time>
      </trkpt>
      <trkpt lat="45.38714" lon="5.614">
        <ele>491.85</ele>
        <time>2020-02-16T09:50:02Z</time>
      </trkpt>
      <trkpt lat="45.38719" lon="5.614">
        <ele>491.85</ele>
        <time>2020-02-16T09:50:03Z</time>
      </trkpt>
      <trkpt lat="45.38755" lon="5.61394">
        <ele>488.97</ele>
        <time>2020-02-16T09:50:10Z</time>
      </trkpt>
      <trkpt lat="45.38789" lon="5.61386">
        <ele>485.12</ele>
        <time>2020-02-16T09:50:15Z</time>
      </trkpt>
      <trkpt lat="45.38824" lon="5.61384">
        <ele>482.24</ele>
        <time>2020-02-16T09:50:20Z</time>
      </trkpt>
      <trkpt lat="45.3885" lon="5.6138">
        <ele>476.95</ele>
        <time>2020-02-16T09:50:24Z</time>
      </trkpt>
      <trkpt lat="45.38882" lon="5.61367">
        <ele>474.07</ele>
        <time>2020-02-16T09:50:29Z</time>
      </trkpt>
      <trkpt lat="45.38888" lon="5.61365">
        <ele>473.11</ele>
        <time>2020-02-16T09:50:30Z</time>
      </trkpt>
      <trkpt lat="45.389" lon="5.61361">
        <ele>472.14</ele>
        <time>2020-02-16T09:50:32Z</time>
      </trkpt>
      <trkpt lat="45.38906" lon="5.61356">
        <ele>471.18</ele>
        <time>2020-02-16T09:50:33Z</time>
      </trkpt>
      <trkpt lat="45.38913" lon="5.61351">
        <ele>471.18</ele>
        <time>2020-02-16T09:50:34Z</time>
      </trkpt>
      <trkpt lat="45.38919" lon="5.61345">
        <ele>470.22</ele>
        <time>2020-02-16T09:50:35Z</time>
      </trkpt>
      <trkpt lat="45.38926" lon="5.6134">
        <ele>468.78</ele>
        <time>2020-02-16T09:50:36Z</time>
      </trkpt>
      <trkpt lat="45.38933" lon="5.61336">
        <ele>467.82</ele>
        <time>2020-02-16T09:50:37Z</time>
      </trkpt>
      <trkpt lat="45.38964" lon="5.61326">
        <ele>464.93</ele>
        <time>2020-02-16T09:50:41Z</time>
      </trkpt>
      <trkpt lat="45.38972" lon="5.61323">
        <ele>463.01</ele>
        <time>2020-02-16T09:50:42Z</time>
      </trkpt>
      <trkpt lat="45.38979" lon="5.61319">
        <ele>462.05</ele>
        <time>2020-02-16T09:50:43Z</time>
      </trkpt>
      <trkpt lat="45.39002" lon="5.6131">
        <ele>459.17</ele>
        <time>2020-02-16T09:50:46Z</time>
      </trkpt>
      <trkpt lat="45.39035" lon="5.61298">
        <ele>455.8</ele>
        <time>2020-02-16T09:50:50Z</time>
      </trkpt>
      <trkpt lat="45.39043" lon="5.61295">
        <ele>454.84</ele>
        <time>2020-02-16T09:50:51Z</time>
      </trkpt>
      <trkpt lat="45.3905" lon="5.61293">
        <ele>453.88</ele>
        <time>2020-02-16T09:50:52Z</time>
      </trkpt>
      <trkpt lat="45.39056" lon="5.6129">
        <ele>453.88</ele>
        <time>2020-02-16T09:50:53Z</time>
      </trkpt>
      <trkpt lat="45.39062" lon="5.61287">
        <ele>452.92</ele>
        <time>2020-02-16T09:50:54Z</time>
      </trkpt>
      <trkpt lat="45.39097" lon="5.61268">
        <ele>451</ele>
        <time>2020-02-16T09:51:03Z</time>
      </trkpt>
      <trkpt lat="45.39117" lon="5.61234">
        <ele>452.92</ele>
        <time>2020-02-16T09:51:19Z</time>
      </trkpt>
      <trkpt lat="45.39135" lon="5.61202">
        <ele>455.8</ele>
        <time>2020-02-16T09:51:37Z</time>
      </trkpt>
      <trkpt lat="45.39153" lon="5.61168">
        <ele>459.17</ele>
        <time>2020-02-16T09:51:56Z</time>
      </trkpt>
      <trkpt lat="45.39164" lon="5.6114">
        <ele>462.05</ele>
        <time>2020-02-16T09:52:12Z</time>
      </trkpt>
      <trkpt lat="45.39175" lon="5.61116">
        <ele>463.97</ele>
        <time>2020-02-16T09:52:27Z</time>
      </trkpt>
      <trkpt lat="45.3919" lon="5.61085">
        <ele>465.9</ele>
        <time>2020-02-16T09:52:42Z</time>
      </trkpt>
      <trkpt lat="45.39208" lon="5.61057">
        <ele>468.78</ele>
        <time>2020-02-16T09:53:01Z</time>
      </trkpt>
      <trkpt lat="45.39221" lon="5.61036">
        <ele>472.14</ele>
        <time>2020-02-16T09:53:14Z</time>
      </trkpt>
      <trkpt lat="45.39244" lon="5.61">
        <ele>474.07</ele>
        <time>2020-02-16T09:53:31Z</time>
      </trkpt>
      <trkpt lat="45.39265" lon="5.60973">
        <ele>475.99</ele>
        <time>2020-02-16T09:53:47Z</time>
      </trkpt>
      <trkpt lat="45.39296" lon="5.60949">
        <ele>476.95</ele>
        <time>2020-02-16T09:54:00Z</time>
      </trkpt>
      <trkpt lat="45.39347" lon="5.60927">
        <ele>476.95</ele>
        <time>2020-02-16T09:54:16Z</time>
      </trkpt>
      <trkpt lat="45.39398" lon="5.60907">
        <ele>476.95</ele>
        <time>2020-02-16T09:54:33Z</time>
      </trkpt>
      <trkpt lat="45.39431" lon="5.60882">
        <ele>478.87</ele>
        <time>2020-02-16T09:54:49Z</time>
      </trkpt>
      <trkpt lat="45.39453" lon="5.60855">
        <ele>482.24</ele>
        <time>2020-02-16T09:55:04Z</time>
      </trkpt>
      <trkpt lat="45.39472" lon="5.6083">
        <ele>485.12</ele>
        <time>2020-02-16T09:55:19Z</time>
      </trkpt>
      <trkpt lat="45.39487" lon="5.60812">
        <ele>488.01</ele>
        <time>2020-02-16T09:55:31Z</time>
      </trkpt>
      <trkpt lat="45.3951" lon="5.60794">
        <ele>490.89</ele>
        <time>2020-02-16T09:55:47Z</time>
      </trkpt>
      <trkpt lat="45.39529" lon="5.60774">
        <ele>493.77</ele>
        <time>2020-02-16T09:56:06Z</time>
      </trkpt>
      <trkpt lat="45.39529" lon="5.60775">
        <ele>493.77</ele>
        <time>2020-02-16T09:56:53Z</time>
      </trkpt>
      <trkpt lat="45.3953" lon="5.60775">
        <ele>493.77</ele>
        <time>2020-02-16T09:57:21Z</time>
      </trkpt>
      <trkpt lat="45.39531" lon="5.60773">
        <ele>493.77</ele>
        <time>2020-02-16T09:57:58Z</time>
      </trkpt>
      <trkpt lat="45.39536" lon="5.60763">
        <ele>495.22</ele>
        <time>2020-02-16T09:58:03Z</time>
      </trkpt>
      <trkpt lat="45.39538" lon="5.6076">
        <ele>495.22</ele>
        <time>2020-02-16T09:58:04Z</time>
      </trkpt>
      <trkpt lat="45.39566" lon="5.6073">
        <ele>493.77</ele>
        <time>2020-02-16T09:58:18Z</time>
      </trkpt>
      <trkpt lat="45.39586" lon="5.60709">
        <ele>493.77</ele>
        <time>2020-02-16T09:58:25Z</time>
      </trkpt>
      <trkpt lat="45.39589" lon="5.60705">
        <ele>493.77</ele>
        <time>2020-02-16T09:58:26Z</time>
      </trkpt>
      <trkpt lat="45.39592" lon="5.60701">
        <ele>492.81</ele>
        <time>2020-02-16T09:58:27Z</time>
      </trkpt>
      <trkpt lat="45.39596" lon="5.60696">
        <ele>492.81</ele>
        <time>2020-02-16T09:58:28Z</time>
      </trkpt>
      <trkpt lat="45.39599" lon="5.60692">
        <ele>492.81</ele>
        <time>2020-02-16T09:58:29Z</time>
      </trkpt>
      <trkpt lat="45.39603" lon="5.60689">
        <ele>492.81</ele>
        <time>2020-02-16T09:58:30Z</time>
      </trkpt>
      <trkpt lat="45.39657" lon="5.60633">
        <ele>489.93</ele>
        <time>2020-02-16T09:58:43Z</time>
      </trkpt>
      <trkpt lat="45.39709" lon="5.60548">
        <ele>488.01</ele>
        <time>2020-02-16T09:58:57Z</time>
      </trkpt>
      <trkpt lat="45.39712" lon="5.60542">
        <ele>488.01</ele>
        <time>2020-02-16T09:58:58Z</time>
      </trkpt>
      <trkpt lat="45.39715" lon="5.60535">
        <ele>488.01</ele>
        <time>2020-02-16T09:58:59Z</time>
      </trkpt>
      <trkpt lat="45.39754" lon="5.60453">
        <ele>488.01</ele>
        <time>2020-02-16T09:59:14Z</time>
      </trkpt>
      <trkpt lat="45.39809" lon="5.60385">
        <ele>489.93</ele>
        <time>2020-02-16T09:59:35Z</time>
      </trkpt>
      <trkpt lat="45.3987" lon="5.60331">
        <ele>489.93</ele>
        <time>2020-02-16T09:59:55Z</time>
      </trkpt>
      <trkpt lat="45.39941" lon="5.60286">
        <ele>490.89</ele>
        <time>2020-02-16T10:00:19Z</time>
      </trkpt>
      <trkpt lat="45.40006" lon="5.60235">
        <ele>491.85</ele>
        <time>2020-02-16T10:00:41Z</time>
      </trkpt>
      <trkpt lat="45.40044" lon="5.60201">
        <ele>492.81</ele>
        <time>2020-02-16T10:00:57Z</time>
      </trkpt>
      <trkpt lat="45.40044" lon="5.60197">
        <ele>492.81</ele>
        <time>2020-02-16T10:00:58Z</time>
      </trkpt>
      <trkpt lat="45.40044" lon="5.60193">
        <ele>492.81</ele>
        <time>2020-02-16T10:00:59Z</time>
      </trkpt>
      <trkpt lat="45.4003" lon="5.60097">
        <ele>493.77</ele>
        <time>2020-02-16T10:01:17Z</time>
      </trkpt>
      <trkpt lat="45.40025" lon="5.60066">
        <ele>493.77</ele>
        <time>2020-02-16T10:01:23Z</time>
      </trkpt>
      <trkpt lat="45.40027" lon="5.60061">
        <ele>493.77</ele>
        <time>2020-02-16T10:01:24Z</time>
      </trkpt>
      <trkpt lat="45.4003" lon="5.60058">
        <ele>493.77</ele>
        <time>2020-02-16T10:01:25Z</time>
      </trkpt>
      <trkpt lat="45.40033" lon="5.60055">
        <ele>493.77</ele>
        <time>2020-02-16T10:01:26Z</time>
      </trkpt>
      <trkpt lat="45.40036" lon="5.60053">
        <ele>493.77</ele>
        <time>2020-02-16T10:01:27Z</time>
      </trkpt>
      <trkpt lat="45.40038" lon="5.60052">
        <ele>493.77</ele>
        <time>2020-02-16T10:01:28Z</time>
      </trkpt>
      <trkpt lat="45.4004" lon="5.60052">
        <ele>493.77</ele>
        <time>2020-02-16T10:01:29Z</time>
      </trkpt>
      <trkpt lat="45.40043" lon="5.60052">
        <ele>493.77</ele>
        <time>2020-02-16T10:01:31Z</time>
      </trkpt>
      <trkpt lat="45.40044" lon="5.60052">
        <ele>493.77</ele>
        <time>2020-02-16T10:01:32Z</time>
      </trkpt>
      <trkpt lat="45.40045" lon="5.60051">
        <ele>493.77</ele>
        <time>2020-02-16T10:01:33Z</time>
      </trkpt>
      <trkpt lat="45.40046" lon="5.6005">
        <ele>493.77</ele>
        <time>2020-02-16T10:01:34Z</time>
      </trkpt>
      <trkpt lat="45.40048" lon="5.6005">
        <ele>493.77</ele>
        <time>2020-02-16T10:01:35Z</time>
      </trkpt>
      <trkpt lat="45.40086" lon="5.60036">
        <ele>493.77</ele>
        <time>2020-02-16T10:01:51Z</time>
      </trkpt>
      <trkpt lat="45.40124" lon="5.59996">
        <ele>496.18</ele>
        <time>2020-02-16T10:02:08Z</time>
      </trkpt>
      <trkpt lat="45.40131" lon="5.59926">
        <ele>497.14</ele>
        <time>2020-02-16T10:02:24Z</time>
      </trkpt>
      <trkpt lat="45.40151" lon="5.59866">
        <ele>498.1</ele>
        <time>2020-02-16T10:02:39Z</time>
      </trkpt>
      <trkpt lat="45.40184" lon="5.59813">
        <ele>500.02</ele>
        <time>2020-02-16T10:02:56Z</time>
      </trkpt>
      <trkpt lat="45.40212" lon="5.59775">
        <ele>501.95</ele>
        <time>2020-02-16T10:03:12Z</time>
      </trkpt>
      <trkpt lat="45.40242" lon="5.59722">
        <ele>504.83</ele>
        <time>2020-02-16T10:03:30Z</time>
      </trkpt>
      <trkpt lat="45.40285" lon="5.59661">
        <ele>507.23</ele>
        <time>2020-02-16T10:03:52Z</time>
      </trkpt>
      <trkpt lat="45.40321" lon="5.59631">
        <ele>508.19</ele>
        <time>2020-02-16T10:04:10Z</time>
      </trkpt>
      <trkpt lat="45.40332" lon="5.59624">
        <ele>509.16</ele>
        <time>2020-02-16T10:04:17Z</time>
      </trkpt>
      <trkpt lat="45.40332" lon="5.59622">
        <ele>509.16</ele>
        <time>2020-02-16T10:04:18Z</time>
      </trkpt>
      <trkpt lat="45.40331" lon="5.59619">
        <ele>509.16</ele>
        <time>2020-02-16T10:04:19Z</time>
      </trkpt>
      <trkpt lat="45.4033" lon="5.59617">
        <ele>509.16</ele>
        <time>2020-02-16T10:04:20Z</time>
      </trkpt>
      <trkpt lat="45.40329" lon="5.59615">
        <ele>509.16</ele>
        <time>2020-02-16T10:04:21Z</time>
      </trkpt>
      <trkpt lat="45.40328" lon="5.59613">
        <ele>509.16</ele>
        <time>2020-02-16T10:04:22Z</time>
      </trkpt>
      <trkpt lat="45.40327" lon="5.59613">
        <ele>508.19</ele>
        <time>2020-02-16T10:04:35Z</time>
      </trkpt>
      <trkpt lat="45.40326" lon="5.59609">
        <ele>509.16</ele>
        <time>2020-02-16T10:04:51Z</time>
      </trkpt>
      <trkpt lat="45.40324" lon="5.59608">
        <ele>509.16</ele>
        <time>2020-02-16T10:04:52Z</time>
      </trkpt>
      <trkpt lat="45.40323" lon="5.59607">
        <ele>509.16</ele>
        <time>2020-02-16T10:04:53Z</time>
      </trkpt>
      <trkpt lat="45.40302" lon="5.59586">
        <ele>508.19</ele>
        <time>2020-02-16T10:05:02Z</time>
      </trkpt>
      <trkpt lat="45.40302" lon="5.59582">
        <ele>508.19</ele>
        <time>2020-02-16T10:05:03Z</time>
      </trkpt>
      <trkpt lat="45.40312" lon="5.59562">
        <ele>510.12</ele>
        <time>2020-02-16T10:05:14Z</time>
      </trkpt>
      <trkpt lat="45.40325" lon="5.59539">
        <ele>512.04</ele>
        <time>2020-02-16T10:05:30Z</time>
      </trkpt>
      <trkpt lat="45.40341" lon="5.59521">
        <ele>514.92</ele>
        <time>2020-02-16T10:05:46Z</time>
      </trkpt>
      <trkpt lat="45.40346" lon="5.59514">
        <ele>515.88</ele>
        <time>2020-02-16T10:05:52Z</time>
      </trkpt>
      <trkpt lat="45.40363" lon="5.59497">
        <ele>520.21</ele>
        <time>2020-02-16T10:06:10Z</time>
      </trkpt>
      <trkpt lat="45.40378" lon="5.59486">
        <ele>523.09</ele>
        <time>2020-02-16T10:06:25Z</time>
      </trkpt>
      <trkpt lat="45.40389" lon="5.59481">
        <ele>525.02</ele>
        <time>2020-02-16T10:06:36Z</time>
      </trkpt>
      <trkpt lat="45.40404" lon="5.59477">
        <ele>527.9</ele>
        <time>2020-02-16T10:06:50Z</time>
      </trkpt>
      <trkpt lat="45.40409" lon="5.59474">
        <ele>529.82</ele>
        <time>2020-02-16T10:06:55Z</time>
      </trkpt>
      <trkpt lat="45.40414" lon="5.59459">
        <ele>532.23</ele>
        <time>2020-02-16T10:07:06Z</time>
      </trkpt>
      <trkpt lat="45.40428" lon="5.59438">
        <ele>535.11</ele>
        <time>2020-02-16T10:07:23Z</time>
      </trkpt>
      <trkpt lat="45.40439" lon="5.59424">
        <ele>537.99</ele>
        <time>2020-02-16T10:07:38Z</time>
      </trkpt>
      <trkpt lat="45.40444" lon="5.59415">
        <ele>539.92</ele>
        <time>2020-02-16T10:07:45Z</time>
      </trkpt>
      <trkpt lat="45.40455" lon="5.59402">
        <ele>541.84</ele>
        <time>2020-02-16T10:07:59Z</time>
      </trkpt>
      <trkpt lat="45.40457" lon="5.594">
        <ele>542.8</ele>
        <time>2020-02-16T10:08:02Z</time>
      </trkpt>
      <trkpt lat="45.40466" lon="5.59389">
        <ele>545.2</ele>
        <time>2020-02-16T10:08:11Z</time>
      </trkpt>
      <trkpt lat="45.40476" lon="5.59369">
        <ele>547.13</ele>
        <time>2020-02-16T10:08:25Z</time>
      </trkpt>
      <trkpt lat="45.4048" lon="5.59363">
        <ele>548.09</ele>
        <time>2020-02-16T10:08:30Z</time>
      </trkpt>
      <trkpt lat="45.40483" lon="5.59361">
        <ele>549.05</ele>
        <time>2020-02-16T10:08:32Z</time>
      </trkpt>
      <trkpt lat="45.40487" lon="5.59356">
        <ele>550.01</ele>
        <time>2020-02-16T10:08:36Z</time>
      </trkpt>
      <trkpt lat="45.40501" lon="5.5934">
        <ele>552.9</ele>
        <time>2020-02-16T10:08:49Z</time>
      </trkpt>
      <trkpt lat="45.40503" lon="5.59338">
        <ele>553.86</ele>
        <time>2020-02-16T10:08:51Z</time>
      </trkpt>
      <trkpt lat="45.40508" lon="5.59334">
        <ele>554.82</ele>
        <time>2020-02-16T10:08:56Z</time>
      </trkpt>
      <trkpt lat="45.40516" lon="5.59313">
        <ele>558.18</ele>
        <time>2020-02-16T10:09:10Z</time>
      </trkpt>
      <trkpt lat="45.40522" lon="5.59307">
        <ele>560.11</ele>
        <time>2020-02-16T10:09:18Z</time>
      </trkpt>
      <trkpt lat="45.40526" lon="5.59309">
        <ele>561.07</ele>
        <time>2020-02-16T10:09:22Z</time>
      </trkpt>
      <trkpt lat="45.40536" lon="5.59314">
        <ele>562.99</ele>
        <time>2020-02-16T10:09:32Z</time>
      </trkpt>
      <trkpt lat="45.40543" lon="5.59317">
        <ele>563.95</ele>
        <time>2020-02-16T10:09:37Z</time>
      </trkpt>
      <trkpt lat="45.40553" lon="5.59313">
        <ele>566.83</ele>
        <time>2020-02-16T10:09:46Z</time>
      </trkpt>
      <trkpt lat="45.40556" lon="5.59309">
        <ele>566.83</ele>
        <time>2020-02-16T10:09:49Z</time>
      </trkpt>
      <trkpt lat="45.40569" lon="5.59304">
        <ele>571.16</ele>
        <time>2020-02-16T10:10:02Z</time>
      </trkpt>
      <trkpt lat="45.40576" lon="5.59296">
        <ele>574.04</ele>
        <time>2020-02-16T10:10:12Z</time>
      </trkpt>
      <trkpt lat="45.40581" lon="5.59286">
        <ele>575.97</ele>
        <time>2020-02-16T10:10:21Z</time>
      </trkpt>
      <trkpt lat="45.40582" lon="5.5928">
        <ele>577.89</ele>
        <time>2020-02-16T10:10:36Z</time>
      </trkpt>
      <trkpt lat="45.40582" lon="5.59273">
        <ele>577.89</ele>
        <time>2020-02-16T10:11:04Z</time>
      </trkpt>
      <trkpt lat="45.40571" lon="5.59283">
        <ele>577.89</ele>
        <time>2020-02-16T10:11:33Z</time>
      </trkpt>
      <trkpt lat="45.40583" lon="5.5928">
        <ele>577.89</ele>
        <time>2020-02-16T10:13:19Z</time>
      </trkpt>
      <trkpt lat="45.40583" lon="5.59278">
        <ele>577.89</ele>
        <time>2020-02-16T10:15:03Z</time>
      </trkpt>
      <trkpt lat="45.40584" lon="5.59275">
        <ele>577.89</ele>
        <time>2020-02-16T10:16:31Z</time>
      </trkpt>
      <trkpt lat="45.40584" lon="5.59274">
        <ele>577.89</ele>
        <time>2020-02-16T10:16:36Z</time>
      </trkpt>
      <trkpt lat="45.40582" lon="5.59267">
        <ele>577.89</ele>
        <time>2020-02-16T10:16:40Z</time>
      </trkpt>
      <trkpt lat="45.40581" lon="5.59245">
        <ele>580.77</ele>
        <time>2020-02-16T10:16:49Z</time>
      </trkpt>
      <trkpt lat="45.4058" lon="5.59195">
        <ele>580.77</ele>
        <time>2020-02-16T10:17:05Z</time>
      </trkpt>
      <trkpt lat="45.40568" lon="5.59167">
        <ele>579.81</ele>
        <time>2020-02-16T10:17:13Z</time>
      </trkpt>
      <trkpt lat="45.40543" lon="5.59145">
        <ele>576.93</ele>
        <time>2020-02-16T10:17:23Z</time>
      </trkpt>
      <trkpt lat="45.40537" lon="5.59136">
        <ele>575.01</ele>
        <time>2020-02-16T10:17:26Z</time>
      </trkpt>
      <trkpt lat="45.40529" lon="5.5913">
        <ele>574.04</ele>
        <time>2020-02-16T10:17:29Z</time>
      </trkpt>
      <trkpt lat="45.40508" lon="5.59115">
        <ele>571.16</ele>
        <time>2020-02-16T10:17:34Z</time>
      </trkpt>
      <trkpt lat="45.40473" lon="5.59083">
        <ele>565.87</ele>
        <time>2020-02-16T10:17:40Z</time>
      </trkpt>
      <trkpt lat="45.40459" lon="5.59073">
        <ele>563.95</ele>
        <time>2020-02-16T10:17:42Z</time>
      </trkpt>
      <trkpt lat="45.40434" lon="5.59053">
        <ele>559.14</ele>
        <time>2020-02-16T10:17:46Z</time>
      </trkpt>
      <trkpt lat="45.40409" lon="5.59035">
        <ele>555.78</ele>
        <time>2020-02-16T10:17:50Z</time>
      </trkpt>
      <trkpt lat="45.40393" lon="5.59027">
        <ele>553.86</ele>
        <time>2020-02-16T10:17:53Z</time>
      </trkpt>
      <trkpt lat="45.40373" lon="5.59012">
        <ele>552.9</ele>
        <time>2020-02-16T10:17:57Z</time>
      </trkpt>
      <trkpt lat="45.40358" lon="5.58998">
        <ele>550.97</ele>
        <time>2020-02-16T10:18:01Z</time>
      </trkpt>
      <trkpt lat="45.40343" lon="5.58984">
        <ele>550.01</ele>
        <time>2020-02-16T10:18:05Z</time>
      </trkpt>
      <trkpt lat="45.40334" lon="5.58978">
        <ele>550.01</ele>
        <time>2020-02-16T10:18:07Z</time>
      </trkpt>
      <trkpt lat="45.40305" lon="5.5895">
        <ele>546.17</ele>
        <time>2020-02-16T10:18:14Z</time>
      </trkpt>
      <trkpt lat="45.4029" lon="5.5895">
        <ele>545.2</ele>
        <time>2020-02-16T10:18:18Z</time>
      </trkpt>
      <trkpt lat="45.40256" lon="5.5895">
        <ele>540.88</ele>
        <time>2020-02-16T10:18:25Z</time>
      </trkpt>
      <trkpt lat="45.40236" lon="5.5895">
        <ele>537.99</ele>
        <time>2020-02-16T10:18:33Z</time>
      </trkpt>
      <trkpt lat="45.40233" lon="5.58943">
        <ele>537.03</ele>
        <time>2020-02-16T10:18:36Z</time>
      </trkpt>
      <trkpt lat="45.40232" lon="5.5894">
        <ele>537.03</ele>
        <time>2020-02-16T10:18:37Z</time>
      </trkpt>
      <trkpt lat="45.40231" lon="5.58937">
        <ele>537.03</ele>
        <time>2020-02-16T10:18:38Z</time>
      </trkpt>
      <trkpt lat="45.4021" lon="5.58887">
        <ele>539.92</ele>
        <time>2020-02-16T10:18:54Z</time>
      </trkpt>
      <trkpt lat="45.40199" lon="5.58861">
        <ele>540.88</ele>
        <time>2020-02-16T10:19:01Z</time>
      </trkpt>
      <trkpt lat="45.40187" lon="5.58842">
        <ele>539.92</ele>
        <time>2020-02-16T10:19:05Z</time>
      </trkpt>
      <trkpt lat="45.40174" lon="5.58796">
        <ele>537.99</ele>
        <time>2020-02-16T10:19:12Z</time>
      </trkpt>
      <trkpt lat="45.40172" lon="5.58745">
        <ele>537.99</ele>
        <time>2020-02-16T10:19:24Z</time>
      </trkpt>
      <trkpt lat="45.4017" lon="5.58668">
        <ele>537.99</ele>
        <time>2020-02-16T10:19:41Z</time>
      </trkpt>
      <trkpt lat="45.40158" lon="5.5861">
        <ele>538.96</ele>
        <time>2020-02-16T10:19:57Z</time>
      </trkpt>
      <trkpt lat="45.40156" lon="5.58564">
        <ele>538.96</ele>
        <time>2020-02-16T10:20:10Z</time>
      </trkpt>
      <trkpt lat="45.40156" lon="5.58565">
        <ele>538.96</ele>
        <time>2020-02-16T10:20:36Z</time>
      </trkpt>
      <trkpt lat="45.40154" lon="5.58556">
        <ele>538.96</ele>
        <time>2020-02-16T10:21:00Z</time>
      </trkpt>
      <trkpt lat="45.40152" lon="5.58553">
        <ele>538.96</ele>
        <time>2020-02-16T10:21:01Z</time>
      </trkpt>
      <trkpt lat="45.40112" lon="5.58496">
        <ele>536.07</ele>
        <time>2020-02-16T10:21:13Z</time>
      </trkpt>
      <trkpt lat="45.40102" lon="5.58479">
        <ele>535.11</ele>
        <time>2020-02-16T10:21:16Z</time>
      </trkpt>
      <trkpt lat="45.401" lon="5.58473">
        <ele>535.11</ele>
        <time>2020-02-16T10:21:17Z</time>
      </trkpt>
      <trkpt lat="45.40099" lon="5.58466">
        <ele>535.11</ele>
        <time>2020-02-16T10:21:18Z</time>
      </trkpt>
      <trkpt lat="45.40099" lon="5.58459">
        <ele>535.11</ele>
        <time>2020-02-16T10:21:19Z</time>
      </trkpt>
      <trkpt lat="45.401" lon="5.58453">
        <ele>534.15</ele>
        <time>2020-02-16T10:21:20Z</time>
      </trkpt>
      <trkpt lat="45.40101" lon="5.58448">
        <ele>534.15</ele>
        <time>2020-02-16T10:21:21Z</time>
      </trkpt>
      <trkpt lat="45.40104" lon="5.58445">
        <ele>534.15</ele>
        <time>2020-02-16T10:21:22Z</time>
      </trkpt>
      <trkpt lat="45.40106" lon="5.58442">
        <ele>534.15</ele>
        <time>2020-02-16T10:21:23Z</time>
      </trkpt>
      <trkpt lat="45.40107" lon="5.58438">
        <ele>533.19</ele>
        <time>2020-02-16T10:21:24Z</time>
      </trkpt>
      <trkpt lat="45.40105" lon="5.58436">
        <ele>533.19</ele>
        <time>2020-02-16T10:21:25Z</time>
      </trkpt>
      <trkpt lat="45.40095" lon="5.58438">
        <ele>532.23</ele>
        <time>2020-02-16T10:21:28Z</time>
      </trkpt>
      <trkpt lat="45.40078" lon="5.58443">
        <ele>530.79</ele>
        <time>2020-02-16T10:21:32Z</time>
      </trkpt>
      <trkpt lat="45.40066" lon="5.58449">
        <ele>527.9</ele>
        <time>2020-02-16T10:21:35Z</time>
      </trkpt>
      <trkpt lat="45.40049" lon="5.5846">
        <ele>524.06</ele>
        <time>2020-02-16T10:21:40Z</time>
      </trkpt>
      <trkpt lat="45.40037" lon="5.58483">
        <ele>521.17</ele>
        <time>2020-02-16T10:21:45Z</time>
      </trkpt>
      <trkpt lat="45.40026" lon="5.58501">
        <ele>516.85</ele>
        <time>2020-02-16T10:21:50Z</time>
      </trkpt>
      <trkpt lat="45.40013" lon="5.58512">
        <ele>513.96</ele>
        <time>2020-02-16T10:21:54Z</time>
      </trkpt>
      <trkpt lat="45.40004" lon="5.58521">
        <ele>511.08</ele>
        <time>2020-02-16T10:21:57Z</time>
      </trkpt>
      <trkpt lat="45.39997" lon="5.5853">
        <ele>507.23</ele>
        <time>2020-02-16T10:22:00Z</time>
      </trkpt>
      <trkpt lat="45.39986" lon="5.58543">
        <ele>503.87</ele>
        <time>2020-02-16T10:22:04Z</time>
      </trkpt>
      <trkpt lat="45.39964" lon="5.58545">
        <ele>499.06</ele>
        <time>2020-02-16T10:22:08Z</time>
      </trkpt>
      <trkpt lat="45.3995" lon="5.5854">
        <ele>498.1</ele>
        <time>2020-02-16T10:22:11Z</time>
      </trkpt>
      <trkpt lat="45.39918" lon="5.58536">
        <ele>499.06</ele>
        <time>2020-02-16T10:22:24Z</time>
      </trkpt>
      <trkpt lat="45.39914" lon="5.58537">
        <ele>499.06</ele>
        <time>2020-02-16T10:22:26Z</time>
      </trkpt>
      <trkpt lat="45.3991" lon="5.58528">
        <ele>500.02</ele>
        <time>2020-02-16T10:22:30Z</time>
      </trkpt>
      <trkpt lat="45.39909" lon="5.58524">
        <ele>500.02</ele>
        <time>2020-02-16T10:22:31Z</time>
      </trkpt>
      <trkpt lat="45.39905" lon="5.58514">
        <ele>500.98</ele>
        <time>2020-02-16T10:22:34Z</time>
      </trkpt>
      <trkpt lat="45.39903" lon="5.58512">
        <ele>500.98</ele>
        <time>2020-02-16T10:22:35Z</time>
      </trkpt>
      <trkpt lat="45.39901" lon="5.58511">
        <ele>500.98</ele>
        <time>2020-02-16T10:22:36Z</time>
      </trkpt>
      <trkpt lat="45.39899" lon="5.58512">
        <ele>500.98</ele>
        <time>2020-02-16T10:22:49Z</time>
      </trkpt>
      <trkpt lat="45.39897" lon="5.58511">
        <ele>500.98</ele>
        <time>2020-02-16T10:23:15Z</time>
      </trkpt>
      <trkpt lat="45.39887" lon="5.58515">
        <ele>500.98</ele>
        <time>2020-02-16T10:23:19Z</time>
      </trkpt>
      <trkpt lat="45.3984" lon="5.58558">
        <ele>500.98</ele>
        <time>2020-02-16T10:23:35Z</time>
      </trkpt>
      <trkpt lat="45.39796" lon="5.58624">
        <ele>502.91</ele>
        <time>2020-02-16T10:23:53Z</time>
      </trkpt>
      <trkpt lat="45.39739" lon="5.58689">
        <ele>504.83</ele>
        <time>2020-02-16T10:24:16Z</time>
      </trkpt>
      <trkpt lat="45.39706" lon="5.58731">
        <ele>505.79</ele>
        <time>2020-02-16T10:24:33Z</time>
      </trkpt>
      <trkpt lat="45.39675" lon="5.58762">
        <ele>507.23</ele>
        <time>2020-02-16T10:24:48Z</time>
      </trkpt>
      <trkpt lat="45.39635" lon="5.58805">
        <ele>507.23</ele>
        <time>2020-02-16T10:25:06Z</time>
      </trkpt>
      <trkpt lat="45.39603" lon="5.58842">
        <ele>505.79</ele>
        <time>2020-02-16T10:25:19Z</time>
      </trkpt>
      <trkpt lat="45.39561" lon="5.58881">
        <ele>504.83</ele>
        <time>2020-02-16T10:25:34Z</time>
      </trkpt>
      <trkpt lat="45.39542" lon="5.58904">
        <ele>505.79</ele>
        <time>2020-02-16T10:25:44Z</time>
      </trkpt>
      <trkpt lat="45.39514" lon="5.58929">
        <ele>507.23</ele>
        <time>2020-02-16T10:25:56Z</time>
      </trkpt>
      <trkpt lat="45.39499" lon="5.58952">
        <ele>507.23</ele>
        <time>2020-02-16T10:26:03Z</time>
      </trkpt>
      <trkpt lat="45.39463" lon="5.58988">
        <ele>507.23</ele>
        <time>2020-02-16T10:26:14Z</time>
      </trkpt>
      <trkpt lat="45.39433" lon="5.5903">
        <ele>508.19</ele>
        <time>2020-02-16T10:26:26Z</time>
      </trkpt>
      <trkpt lat="45.39412" lon="5.59063">
        <ele>508.19</ele>
        <time>2020-02-16T10:26:35Z</time>
      </trkpt>
      <trkpt lat="45.39377" lon="5.59113">
        <ele>509.16</ele>
        <time>2020-02-16T10:26:50Z</time>
      </trkpt>
      <trkpt lat="45.39356" lon="5.59142">
        <ele>510.12</ele>
        <time>2020-02-16T10:27:01Z</time>
      </trkpt>
      <trkpt lat="45.39324" lon="5.59169">
        <ele>512.04</ele>
        <time>2020-02-16T10:27:15Z</time>
      </trkpt>
      <trkpt lat="45.39298" lon="5.59187">
        <ele>513.96</ele>
        <time>2020-02-16T10:27:30Z</time>
      </trkpt>
      <trkpt lat="45.39293" lon="5.59194">
        <ele>513.96</ele>
        <time>2020-02-16T10:27:35Z</time>
      </trkpt>
      <trkpt lat="45.39296" lon="5.59223">
        <ele>514.92</ele>
        <time>2020-02-16T10:27:45Z</time>
      </trkpt>
      <trkpt lat="45.39282" lon="5.59258">
        <ele>514.92</ele>
        <time>2020-02-16T10:27:58Z</time>
      </trkpt>
      <trkpt lat="45.39236" lon="5.59302">
        <ele>514.92</ele>
        <time>2020-02-16T10:28:15Z</time>
      </trkpt>
      <trkpt lat="45.39189" lon="5.59336">
        <ele>515.88</ele>
        <time>2020-02-16T10:28:33Z</time>
      </trkpt>
      <trkpt lat="45.39133" lon="5.59364">
        <ele>514.92</ele>
        <time>2020-02-16T10:28:49Z</time>
      </trkpt>
      <trkpt lat="45.39081" lon="5.59402">
        <ele>515.88</ele>
        <time>2020-02-16T10:29:06Z</time>
      </trkpt>
      <trkpt lat="45.39056" lon="5.59444">
        <ele>515.88</ele>
        <time>2020-02-16T10:29:19Z</time>
      </trkpt>
      <trkpt lat="45.39025" lon="5.59468">
        <ele>513.96</ele>
        <time>2020-02-16T10:29:29Z</time>
      </trkpt>
      <trkpt lat="45.38986" lon="5.5948">
        <ele>514.92</ele>
        <time>2020-02-16T10:29:41Z</time>
      </trkpt>
      <trkpt lat="45.38967" lon="5.59505">
        <ele>514.92</ele>
        <time>2020-02-16T10:29:47Z</time>
      </trkpt>
      <trkpt lat="45.38963" lon="5.59509">
        <ele>514.92</ele>
        <time>2020-02-16T10:29:48Z</time>
      </trkpt>
      <trkpt lat="45.38959" lon="5.59512">
        <ele>513.96</ele>
        <time>2020-02-16T10:29:49Z</time>
      </trkpt>
      <trkpt lat="45.38919" lon="5.59554">
        <ele>513.96</ele>
        <time>2020-02-16T10:30:02Z</time>
      </trkpt>
      <trkpt lat="45.3889" lon="5.59609">
        <ele>513.96</ele>
        <time>2020-02-16T10:30:14Z</time>
      </trkpt>
      <trkpt lat="45.38838" lon="5.59617">
        <ele>513.96</ele>
        <time>2020-02-16T10:30:28Z</time>
      </trkpt>
      <trkpt lat="45.38801" lon="5.59614">
        <ele>515.88</ele>
        <time>2020-02-16T10:30:42Z</time>
      </trkpt>
      <trkpt lat="45.388" lon="5.59615">
        <ele>515.88</ele>
        <time>2020-02-16T10:30:43Z</time>
      </trkpt>
      <trkpt lat="45.3879" lon="5.59624">
        <ele>515.88</ele>
        <time>2020-02-16T10:30:51Z</time>
      </trkpt>
      <trkpt lat="45.38784" lon="5.5964">
        <ele>520.21</ele>
        <time>2020-02-16T10:31:03Z</time>
      </trkpt>
      <trkpt lat="45.38775" lon="5.59663">
        <ele>523.09</ele>
        <time>2020-02-16T10:31:17Z</time>
      </trkpt>
      <trkpt lat="45.38769" lon="5.59678">
        <ele>525.98</ele>
        <time>2020-02-16T10:31:29Z</time>
      </trkpt>
      <trkpt lat="45.38762" lon="5.59695">
        <ele>528.86</ele>
        <time>2020-02-16T10:31:41Z</time>
      </trkpt>
      <trkpt lat="45.3875" lon="5.59717">
        <ele>530.79</ele>
        <time>2020-02-16T10:31:57Z</time>
      </trkpt>
      <trkpt lat="45.38737" lon="5.59735">
        <ele>534.15</ele>
        <time>2020-02-16T10:32:09Z</time>
      </trkpt>
      <trkpt lat="45.38719" lon="5.5975">
        <ele>536.07</ele>
        <time>2020-02-16T10:32:23Z</time>
      </trkpt>
      <trkpt lat="45.38714" lon="5.5976">
        <ele>537.03</ele>
        <time>2020-02-16T10:32:28Z</time>
      </trkpt>
      <trkpt lat="45.38699" lon="5.59776">
        <ele>537.03</ele>
        <time>2020-02-16T10:32:35Z</time>
      </trkpt>
      <trkpt lat="45.38673" lon="5.59802">
        <ele>537.03</ele>
        <time>2020-02-16T10:32:43Z</time>
      </trkpt>
      <trkpt lat="45.38641" lon="5.59822">
        <ele>537.03</ele>
        <time>2020-02-16T10:32:54Z</time>
      </trkpt>
      <trkpt lat="45.38633" lon="5.59828">
        <ele>537.03</ele>
        <time>2020-02-16T10:32:59Z</time>
      </trkpt>
      <trkpt lat="45.38632" lon="5.59847">
        <ele>540.88</ele>
        <time>2020-02-16T10:33:12Z</time>
      </trkpt>
      <trkpt lat="45.38648" lon="5.59868">
        <ele>543.76</ele>
        <time>2020-02-16T10:33:27Z</time>
      </trkpt>
      <trkpt lat="45.38663" lon="5.59885">
        <ele>547.13</ele>
        <time>2020-02-16T10:33:42Z</time>
      </trkpt>
      <trkpt lat="45.38676" lon="5.59897">
        <ele>550.01</ele>
        <time>2020-02-16T10:33:54Z</time>
      </trkpt>
      <trkpt lat="45.38689" lon="5.59913">
        <ele>552.9</ele>
        <time>2020-02-16T10:34:09Z</time>
      </trkpt>
      <trkpt lat="45.38699" lon="5.59927">
        <ele>554.82</ele>
        <time>2020-02-16T10:34:20Z</time>
      </trkpt>
      <trkpt lat="45.38717" lon="5.59937">
        <ele>557.22</ele>
        <time>2020-02-16T10:34:36Z</time>
      </trkpt>
      <trkpt lat="45.38733" lon="5.59931">
        <ele>560.11</ele>
        <time>2020-02-16T10:34:49Z</time>
      </trkpt>
      <trkpt lat="45.38747" lon="5.59918">
        <ele>562.99</ele>
        <time>2020-02-16T10:35:02Z</time>
      </trkpt>
      <trkpt lat="45.38761" lon="5.59906">
        <ele>566.83</ele>
        <time>2020-02-16T10:35:16Z</time>
      </trkpt>
      <trkpt lat="45.38773" lon="5.59897">
        <ele>570.2</ele>
        <time>2020-02-16T10:35:29Z</time>
      </trkpt>
      <trkpt lat="45.38788" lon="5.59892">
        <ele>573.08</ele>
        <time>2020-02-16T10:35:42Z</time>
      </trkpt>
      <trkpt lat="45.38792" lon="5.59893">
        <ele>573.08</ele>
        <time>2020-02-16T10:35:46Z</time>
      </trkpt>
      <trkpt lat="45.38804" lon="5.59915">
        <ele>576.93</ele>
        <time>2020-02-16T10:36:02Z</time>
      </trkpt>
      <trkpt lat="45.38813" lon="5.59944">
        <ele>578.85</ele>
        <time>2020-02-16T10:36:19Z</time>
      </trkpt>
      <trkpt lat="45.38824" lon="5.59965">
        <ele>582.22</ele>
        <time>2020-02-16T10:36:35Z</time>
      </trkpt>
      <trkpt lat="45.38829" lon="5.59995">
        <ele>585.1</ele>
        <time>2020-02-16T10:36:53Z</time>
      </trkpt>
      <trkpt lat="45.38829" lon="5.59996">
        <ele>585.1</ele>
        <time>2020-02-16T10:36:54Z</time>
      </trkpt>
      <trkpt lat="45.38833" lon="5.60012">
        <ele>587.98</ele>
        <time>2020-02-16T10:37:06Z</time>
      </trkpt>
      <trkpt lat="45.38835" lon="5.60033">
        <ele>590.87</ele>
        <time>2020-02-16T10:37:18Z</time>
      </trkpt>
      <trkpt lat="45.38838" lon="5.60056">
        <ele>594.23</ele>
        <time>2020-02-16T10:37:33Z</time>
      </trkpt>
      <trkpt lat="45.38841" lon="5.60078">
        <ele>597.12</ele>
        <time>2020-02-16T10:37:46Z</time>
      </trkpt>
      <trkpt lat="45.38841" lon="5.60082">
        <ele>598.08</ele>
        <time>2020-02-16T10:37:49Z</time>
      </trkpt>
      <trkpt lat="45.3884" lon="5.60104">
        <ele>600</ele>
        <time>2020-02-16T10:38:02Z</time>
      </trkpt>
      <trkpt lat="45.38836" lon="5.6013">
        <ele>602.88</ele>
        <time>2020-02-16T10:38:18Z</time>
      </trkpt>
      <trkpt lat="45.38833" lon="5.60154">
        <ele>604.81</ele>
        <time>2020-02-16T10:38:32Z</time>
      </trkpt>
      <trkpt lat="45.38824" lon="5.60174">
        <ele>608.17</ele>
        <time>2020-02-16T10:38:46Z</time>
      </trkpt>
      <trkpt lat="45.38817" lon="5.60193">
        <ele>611.06</ele>
        <time>2020-02-16T10:38:58Z</time>
      </trkpt>
      <trkpt lat="45.38812" lon="5.60212">
        <ele>613.94</ele>
        <time>2020-02-16T10:39:10Z</time>
      </trkpt>
      <trkpt lat="45.38806" lon="5.60231">
        <ele>616.82</ele>
        <time>2020-02-16T10:39:22Z</time>
      </trkpt>
      <trkpt lat="45.38805" lon="5.60232">
        <ele>616.82</ele>
        <time>2020-02-16T10:39:23Z</time>
      </trkpt>
      <trkpt lat="45.38803" lon="5.60234">
        <ele>617.78</ele>
        <time>2020-02-16T10:39:25Z</time>
      </trkpt>
      <trkpt lat="45.38789" lon="5.60248">
        <ele>619.23</ele>
        <time>2020-02-16T10:39:38Z</time>
      </trkpt>
      <trkpt lat="45.38785" lon="5.6025">
        <ele>620.19</ele>
        <time>2020-02-16T10:39:53Z</time>
      </trkpt>
      <trkpt lat="45.38785" lon="5.60252">
        <ele>620.19</ele>
        <time>2020-02-16T10:40:43Z</time>
      </trkpt>
      <trkpt lat="45.38785" lon="5.60252">
        <ele>621.15</ele>
        <time>2020-02-16T10:40:47Z</time>
      </trkpt>
      <trkpt lat="45.38785" lon="5.60254">
        <ele>620.19</ele>
        <time>2020-02-16T10:41:33Z</time>
      </trkpt>
      <trkpt lat="45.38787" lon="5.60251">
        <ele>620.19</ele>
        <time>2020-02-16T10:42:27Z</time>
      </trkpt>
      <trkpt lat="45.38787" lon="5.60253">
        <ele>620.19</ele>
        <time>2020-02-16T10:43:27Z</time>
      </trkpt>
      <trkpt lat="45.38786" lon="5.60251">
        <ele>620.19</ele>
        <time>2020-02-16T10:44:36Z</time>
      </trkpt>
      <trkpt lat="45.38787" lon="5.60249">
        <ele>620.19</ele>
        <time>2020-02-16T10:45:13Z</time>
      </trkpt>
      <trkpt lat="45.38787" lon="5.6025">
        <ele>620.19</ele>
        <time>2020-02-16T10:45:45Z</time>
      </trkpt>
      <trkpt lat="45.38787" lon="5.60249">
        <ele>620.19</ele>
        <time>2020-02-16T10:46:25Z</time>
      </trkpt>
      <trkpt lat="45.38786" lon="5.60251">
        <ele>620.19</ele>
        <time>2020-02-16T10:46:47Z</time>
      </trkpt>
      <trkpt lat="45.38784" lon="5.60252">
        <ele>620.19</ele>
        <time>2020-02-16T10:48:28Z</time>
      </trkpt>
      <trkpt lat="45.38782" lon="5.60251">
        <ele>620.19</ele>
        <time>2020-02-16T10:50:39Z</time>
      </trkpt>
      <trkpt lat="45.38784" lon="5.60253">
        <ele>620.19</ele>
        <time>2020-02-16T10:51:58Z</time>
      </trkpt>
      <trkpt lat="45.38784" lon="5.60251">
        <ele>620.19</ele>
        <time>2020-02-16T10:52:25Z</time>
      </trkpt>
      <trkpt lat="45.38784" lon="5.60251">
        <ele>620.19</ele>
        <time>2020-02-16T10:52:32Z</time>
      </trkpt>
      <trkpt lat="45.38767" lon="5.60212">
        <ele>616.82</ele>
        <time>2020-02-16T10:52:41Z</time>
      </trkpt>
      <trkpt lat="45.38756" lon="5.602">
        <ele>613.94</ele>
        <time>2020-02-16T10:52:44Z</time>
      </trkpt>
      <trkpt lat="45.38739" lon="5.60198">
        <ele>611.06</ele>
        <time>2020-02-16T10:52:47Z</time>
      </trkpt>
      <trkpt lat="45.38726" lon="5.60201">
        <ele>609.13</ele>
        <time>2020-02-16T10:52:49Z</time>
      </trkpt>
      <trkpt lat="45.38704" lon="5.60211">
        <ele>605.77</ele>
        <time>2020-02-16T10:52:52Z</time>
      </trkpt>
      <trkpt lat="45.38673" lon="5.60219">
        <ele>602.88</ele>
        <time>2020-02-16T10:52:56Z</time>
      </trkpt>
      <trkpt lat="45.38644" lon="5.6023">
        <ele>600</ele>
        <time>2020-02-16T10:53:00Z</time>
      </trkpt>
      <trkpt lat="45.38608" lon="5.60235">
        <ele>600.96</ele>
        <time>2020-02-16T10:53:09Z</time>
      </trkpt>
      <trkpt lat="45.3858" lon="5.60249">
        <ele>601.92</ele>
        <time>2020-02-16T10:53:22Z</time>
      </trkpt>
      <trkpt lat="45.38574" lon="5.60253">
        <ele>601.92</ele>
        <time>2020-02-16T10:53:24Z</time>
      </trkpt>
      <trkpt lat="45.38549" lon="5.60284">
        <ele>599.04</ele>
        <time>2020-02-16T10:53:32Z</time>
      </trkpt>
      <trkpt lat="45.38546" lon="5.6029">
        <ele>597.12</ele>
        <time>2020-02-16T10:53:44Z</time>
      </trkpt>
      <trkpt lat="45.38543" lon="5.60294">
        <ele>597.12</ele>
        <time>2020-02-16T10:53:51Z</time>
      </trkpt>
      <trkpt lat="45.38527" lon="5.60311">
        <ele>596.15</ele>
        <time>2020-02-16T10:53:57Z</time>
      </trkpt>
      <trkpt lat="45.38519" lon="5.60322">
        <ele>595.19</ele>
        <time>2020-02-16T10:53:59Z</time>
      </trkpt>
      <trkpt lat="45.38499" lon="5.60351">
        <ele>590.87</ele>
        <time>2020-02-16T10:54:05Z</time>
      </trkpt>
      <trkpt lat="45.38494" lon="5.60366">
        <ele>590.87</ele>
        <time>2020-02-16T10:54:07Z</time>
      </trkpt>
      <trkpt lat="45.38485" lon="5.60407">
        <ele>587.98</ele>
        <time>2020-02-16T10:54:12Z</time>
      </trkpt>
      <trkpt lat="45.38476" lon="5.60449">
        <ele>584.14</ele>
        <time>2020-02-16T10:54:19Z</time>
      </trkpt>
      <trkpt lat="45.38474" lon="5.60455">
        <ele>583.18</ele>
        <time>2020-02-16T10:54:20Z</time>
      </trkpt>
      <trkpt lat="45.3847" lon="5.60471">
        <ele>582.22</ele>
        <time>2020-02-16T10:54:22Z</time>
      </trkpt>
      <trkpt lat="45.38466" lon="5.60495">
        <ele>579.81</ele>
        <time>2020-02-16T10:54:26Z</time>
      </trkpt>
      <trkpt lat="45.38459" lon="5.60539">
        <ele>575.97</ele>
        <time>2020-02-16T10:54:33Z</time>
      </trkpt>
      <trkpt lat="45.38456" lon="5.60567">
        <ele>575.01</ele>
        <time>2020-02-16T10:54:37Z</time>
      </trkpt>
      <trkpt lat="45.38454" lon="5.60619">
        <ele>571.16</ele>
        <time>2020-02-16T10:54:44Z</time>
      </trkpt>
      <trkpt lat="45.38454" lon="5.60626">
        <ele>571.16</ele>
        <time>2020-02-16T10:54:45Z</time>
      </trkpt>
      <trkpt lat="45.38456" lon="5.6065">
        <ele>567.8</ele>
        <time>2020-02-16T10:54:49Z</time>
      </trkpt>
      <trkpt lat="45.38461" lon="5.60685">
        <ele>563.95</ele>
        <time>2020-02-16T10:54:55Z</time>
      </trkpt>
      <trkpt lat="45.38471" lon="5.60733">
        <ele>562.03</ele>
        <time>2020-02-16T10:55:05Z</time>
      </trkpt>
      <trkpt lat="45.38487" lon="5.60774">
        <ele>562.99</ele>
        <time>2020-02-16T10:55:16Z</time>
      </trkpt>
      <trkpt lat="45.38496" lon="5.60803">
        <ele>562.03</ele>
        <time>2020-02-16T10:55:20Z</time>
      </trkpt>
      <trkpt lat="45.38503" lon="5.60842">
        <ele>560.11</ele>
        <time>2020-02-16T10:55:25Z</time>
      </trkpt>
      <trkpt lat="45.38509" lon="5.60918">
        <ele>559.14</ele>
        <time>2020-02-16T10:55:39Z</time>
      </trkpt>
      <trkpt lat="45.38507" lon="5.60935">
        <ele>559.14</ele>
        <time>2020-02-16T10:55:42Z</time>
      </trkpt>
      <trkpt lat="45.38486" lon="5.60947">
        <ele>558.18</ele>
        <time>2020-02-16T10:55:47Z</time>
      </trkpt>
      <trkpt lat="45.38467" lon="5.60946">
        <ele>557.22</ele>
        <time>2020-02-16T10:55:50Z</time>
      </trkpt>
      <trkpt lat="45.38446" lon="5.60952">
        <ele>555.78</ele>
        <time>2020-02-16T10:55:53Z</time>
      </trkpt>
      <trkpt lat="45.38426" lon="5.60969">
        <ele>553.86</ele>
        <time>2020-02-16T10:55:56Z</time>
      </trkpt>
      <trkpt lat="45.38406" lon="5.6101">
        <ele>550.97</ele>
        <time>2020-02-16T10:56:01Z</time>
      </trkpt>
      <trkpt lat="45.38402" lon="5.61048">
        <ele>549.05</ele>
        <time>2020-02-16T10:56:05Z</time>
      </trkpt>
      <trkpt lat="45.38388" lon="5.61043">
        <ele>543.76</ele>
        <time>2020-02-16T10:56:11Z</time>
      </trkpt>
      <trkpt lat="45.38378" lon="5.61052">
        <ele>541.84</ele>
        <time>2020-02-16T10:56:15Z</time>
      </trkpt>
      <trkpt lat="45.38372" lon="5.61082">
        <ele>539.92</ele>
        <time>2020-02-16T10:56:19Z</time>
      </trkpt>
      <trkpt lat="45.3837" lon="5.6109">
        <ele>538.96</ele>
        <time>2020-02-16T10:56:20Z</time>
      </trkpt>
      <trkpt lat="45.38368" lon="5.61113">
        <ele>537.03</ele>
        <time>2020-02-16T10:56:23Z</time>
      </trkpt>
      <trkpt lat="45.3837" lon="5.61126">
        <ele>536.07</ele>
        <time>2020-02-16T10:56:25Z</time>
      </trkpt>
      <trkpt lat="45.38372" lon="5.61146">
        <ele>534.15</ele>
        <time>2020-02-16T10:56:29Z</time>
      </trkpt>
      <trkpt lat="45.38369" lon="5.61153">
        <ele>532.23</ele>
        <time>2020-02-16T10:56:31Z</time>
      </trkpt>
      <trkpt lat="45.38357" lon="5.61163">
        <ele>528.86</ele>
        <time>2020-02-16T10:56:35Z</time>
      </trkpt>
      <trkpt lat="45.38341" lon="5.61176">
        <ele>525.98</ele>
        <time>2020-02-16T10:56:39Z</time>
      </trkpt>
      <trkpt lat="45.38324" lon="5.61198">
        <ele>522.13</ele>
        <time>2020-02-16T10:56:44Z</time>
      </trkpt>
      <trkpt lat="45.38319" lon="5.61222">
        <ele>517.81</ele>
        <time>2020-02-16T10:56:49Z</time>
      </trkpt>
      <trkpt lat="45.38317" lon="5.61285">
        <ele>516.85</ele>
        <time>2020-02-16T10:57:04Z</time>
      </trkpt>
      <trkpt lat="45.38315" lon="5.61362">
        <ele>516.85</ele>
        <time>2020-02-16T10:57:21Z</time>
      </trkpt>
      <trkpt lat="45.38315" lon="5.61407">
        <ele>515.88</ele>
        <time>2020-02-16T10:57:31Z</time>
      </trkpt>
      <trkpt lat="45.38313" lon="5.61409">
        <ele>515.88</ele>
        <time>2020-02-16T10:57:32Z</time>
      </trkpt>
      <trkpt lat="45.38311" lon="5.61411">
        <ele>515.88</ele>
        <time>2020-02-16T10:57:33Z</time>
      </trkpt>
      <trkpt lat="45.38305" lon="5.61411">
        <ele>515.88</ele>
        <time>2020-02-16T10:57:36Z</time>
      </trkpt>
      <trkpt lat="45.38279" lon="5.61413">
        <ele>516.85</ele>
        <time>2020-02-16T10:57:50Z</time>
      </trkpt>
      <trkpt lat="45.38261" lon="5.61413">
        <ele>518.77</ele>
        <time>2020-02-16T10:58:05Z</time>
      </trkpt>
      <trkpt lat="45.3825" lon="5.61426">
        <ele>522.13</ele>
        <time>2020-02-16T10:58:18Z</time>
      </trkpt>
      <trkpt lat="45.38248" lon="5.61439">
        <ele>523.09</ele>
        <time>2020-02-16T10:58:25Z</time>
      </trkpt>
      <trkpt lat="45.3825" lon="5.61464">
        <ele>524.06</ele>
        <time>2020-02-16T10:58:41Z</time>
      </trkpt>
      <trkpt lat="45.38251" lon="5.61487">
        <ele>524.06</ele>
        <time>2020-02-16T10:58:52Z</time>
      </trkpt>
      <trkpt lat="45.38251" lon="5.61501">
        <ele>524.06</ele>
        <time>2020-02-16T10:58:58Z</time>
      </trkpt>
      <trkpt lat="45.38249" lon="5.61529">
        <ele>524.06</ele>
        <time>2020-02-16T10:59:09Z</time>
      </trkpt>
      <trkpt lat="45.38248" lon="5.61547">
        <ele>524.06</ele>
        <time>2020-02-16T10:59:16Z</time>
      </trkpt>
      <trkpt lat="45.3824" lon="5.61585">
        <ele>525.98</ele>
        <time>2020-02-16T10:59:31Z</time>
      </trkpt>
      <trkpt lat="45.38232" lon="5.616">
        <ele>526.94</ele>
        <time>2020-02-16T10:59:38Z</time>
      </trkpt>
      <trkpt lat="45.38225" lon="5.6162">
        <ele>527.9</ele>
        <time>2020-02-16T10:59:49Z</time>
      </trkpt>
      <trkpt lat="45.38216" lon="5.6163">
        <ele>530.79</ele>
        <time>2020-02-16T10:59:58Z</time>
      </trkpt>
      <trkpt lat="45.38202" lon="5.61649">
        <ele>532.23</ele>
        <time>2020-02-16T11:00:07Z</time>
      </trkpt>
      <trkpt lat="45.38198" lon="5.61655">
        <ele>532.23</ele>
        <time>2020-02-16T11:00:10Z</time>
      </trkpt>
      <trkpt lat="45.38184" lon="5.61685">
        <ele>533.19</ele>
        <time>2020-02-16T11:00:25Z</time>
      </trkpt>
      <trkpt lat="45.38179" lon="5.61693">
        <ele>534.15</ele>
        <time>2020-02-16T11:00:29Z</time>
      </trkpt>
      <trkpt lat="45.38166" lon="5.61709">
        <ele>534.15</ele>
        <time>2020-02-16T11:00:38Z</time>
      </trkpt>
      <trkpt lat="45.38153" lon="5.61732">
        <ele>535.11</ele>
        <time>2020-02-16T11:00:50Z</time>
      </trkpt>
      <trkpt lat="45.38141" lon="5.61747">
        <ele>536.07</ele>
        <time>2020-02-16T11:01:00Z</time>
      </trkpt>
      <trkpt lat="45.38126" lon="5.61764">
        <ele>537.99</ele>
        <time>2020-02-16T11:01:13Z</time>
      </trkpt>
      <trkpt lat="45.38117" lon="5.61772">
        <ele>538.96</ele>
        <time>2020-02-16T11:01:19Z</time>
      </trkpt>
      <trkpt lat="45.38101" lon="5.61786">
        <ele>540.88</ele>
        <time>2020-02-16T11:01:34Z</time>
      </trkpt>
      <trkpt lat="45.38099" lon="5.61787">
        <ele>541.84</ele>
        <time>2020-02-16T11:01:36Z</time>
      </trkpt>
      <trkpt lat="45.38095" lon="5.61789">
        <ele>542.8</ele>
        <time>2020-02-16T11:01:39Z</time>
      </trkpt>
      <trkpt lat="45.38086" lon="5.61793">
        <ele>543.76</ele>
        <time>2020-02-16T11:01:47Z</time>
      </trkpt>
      <trkpt lat="45.38072" lon="5.61797">
        <ele>546.17</ele>
        <time>2020-02-16T11:01:59Z</time>
      </trkpt>
      <trkpt lat="45.38053" lon="5.618">
        <ele>549.05</ele>
        <time>2020-02-16T11:02:15Z</time>
      </trkpt>
      <trkpt lat="45.38039" lon="5.61807">
        <ele>551.93</ele>
        <time>2020-02-16T11:02:29Z</time>
      </trkpt>
      <trkpt lat="45.38025" lon="5.61817">
        <ele>554.82</ele>
        <time>2020-02-16T11:02:45Z</time>
      </trkpt>
      <trkpt lat="45.38011" lon="5.61833">
        <ele>557.22</ele>
        <time>2020-02-16T11:03:04Z</time>
      </trkpt>
      <trkpt lat="45.38002" lon="5.61843">
        <ele>558.18</ele>
        <time>2020-02-16T11:03:13Z</time>
      </trkpt>
      <trkpt lat="45.37994" lon="5.61851">
        <ele>558.18</ele>
        <time>2020-02-16T11:03:31Z</time>
      </trkpt>
      <trkpt lat="45.37992" lon="5.61854">
        <ele>558.18</ele>
        <time>2020-02-16T11:03:54Z</time>
      </trkpt>
      <trkpt lat="45.37992" lon="5.61852">
        <ele>558.18</ele>
        <time>2020-02-16T11:04:16Z</time>
      </trkpt>
      <trkpt lat="45.37992" lon="5.61852">
        <ele>558.18</ele>
        <time>2020-02-16T11:04:40Z</time>
      </trkpt>
      <trkpt lat="45.37987" lon="5.61864">
        <ele>558.18</ele>
        <time>2020-02-16T11:04:49Z</time>
      </trkpt>
      <trkpt lat="45.37972" lon="5.61882">
        <ele>559.14</ele>
        <time>2020-02-16T11:05:02Z</time>
      </trkpt>
      <trkpt lat="45.37951" lon="5.6191">
        <ele>559.14</ele>
        <time>2020-02-16T11:05:13Z</time>
      </trkpt>
      <trkpt lat="45.37931" lon="5.61947">
        <ele>558.18</ele>
        <time>2020-02-16T11:05:23Z</time>
      </trkpt>
      <trkpt lat="45.37928" lon="5.61957">
        <ele>558.18</ele>
        <time>2020-02-16T11:05:25Z</time>
      </trkpt>
      <trkpt lat="45.37908" lon="5.62">
        <ele>557.22</ele>
        <time>2020-02-16T11:05:35Z</time>
      </trkpt>
      <trkpt lat="45.37884" lon="5.62039">
        <ele>557.22</ele>
        <time>2020-02-16T11:05:45Z</time>
      </trkpt>
      <trkpt lat="45.37879" lon="5.62045">
        <ele>558.18</ele>
        <time>2020-02-16T11:05:47Z</time>
      </trkpt>
      <trkpt lat="45.37868" lon="5.62064">
        <ele>558.18</ele>
        <time>2020-02-16T11:05:52Z</time>
      </trkpt>
      <trkpt lat="45.37854" lon="5.62104">
        <ele>554.82</ele>
        <time>2020-02-16T11:06:00Z</time>
      </trkpt>
      <trkpt lat="45.37846" lon="5.62124">
        <ele>550.97</ele>
        <time>2020-02-16T11:06:04Z</time>
      </trkpt>
      <trkpt lat="45.37845" lon="5.62134">
        <ele>550.01</ele>
        <time>2020-02-16T11:06:06Z</time>
      </trkpt>
      <trkpt lat="45.37843" lon="5.6215">
        <ele>550.01</ele>
        <time>2020-02-16T11:06:10Z</time>
      </trkpt>
      <trkpt lat="45.37844" lon="5.6219">
        <ele>549.05</ele>
        <time>2020-02-16T11:06:22Z</time>
      </trkpt>
      <trkpt lat="45.37847" lon="5.62219">
        <ele>548.09</ele>
        <time>2020-02-16T11:06:34Z</time>
      </trkpt>
      <trkpt lat="45.3785" lon="5.62236">
        <ele>547.13</ele>
        <time>2020-02-16T11:06:54Z</time>
      </trkpt>
      <trkpt lat="45.37851" lon="5.6224">
        <ele>546.17</ele>
        <time>2020-02-16T11:06:55Z</time>
      </trkpt>
      <trkpt lat="45.37854" lon="5.62263">
        <ele>543.76</ele>
        <time>2020-02-16T11:07:07Z</time>
      </trkpt>
      <trkpt lat="45.37854" lon="5.62266">
        <ele>543.76</ele>
        <time>2020-02-16T11:07:10Z</time>
      </trkpt>
      <trkpt lat="45.37858" lon="5.62291">
        <ele>541.84</ele>
        <time>2020-02-16T11:07:18Z</time>
      </trkpt>
      <trkpt lat="45.37873" lon="5.62297">
        <ele>536.07</ele>
        <time>2020-02-16T11:07:24Z</time>
      </trkpt>
      <trkpt lat="45.37877" lon="5.62303">
        <ele>533.19</ele>
        <time>2020-02-16T11:07:27Z</time>
      </trkpt>
      <trkpt lat="45.37879" lon="5.62313">
        <ele>532.23</ele>
        <time>2020-02-16T11:07:30Z</time>
      </trkpt>
      <trkpt lat="45.37881" lon="5.62324">
        <ele>530.79</ele>
        <time>2020-02-16T11:07:33Z</time>
      </trkpt>
      <trkpt lat="45.37891" lon="5.62362">
        <ele>532.23</ele>
        <time>2020-02-16T11:07:43Z</time>
      </trkpt>
      <trkpt lat="45.37894" lon="5.6238">
        <ele>530.79</ele>
        <time>2020-02-16T11:07:47Z</time>
      </trkpt>
      <trkpt lat="45.37898" lon="5.62415">
        <ele>527.9</ele>
        <time>2020-02-16T11:07:54Z</time>
      </trkpt>
      <trkpt lat="45.37902" lon="5.62427">
        <ele>524.06</ele>
        <time>2020-02-16T11:07:57Z</time>
      </trkpt>
      <trkpt lat="45.3791" lon="5.62445">
        <ele>520.21</ele>
        <time>2020-02-16T11:08:01Z</time>
      </trkpt>
      <trkpt lat="45.37916" lon="5.62464">
        <ele>516.85</ele>
        <time>2020-02-16T11:08:05Z</time>
      </trkpt>
      <trkpt lat="45.37922" lon="5.62502">
        <ele>513.96</ele>
        <time>2020-02-16T11:08:12Z</time>
      </trkpt>
      <trkpt lat="45.37923" lon="5.62505">
        <ele>513.96</ele>
        <time>2020-02-16T11:08:13Z</time>
      </trkpt>
      <trkpt lat="45.37927" lon="5.62545">
        <ele>511.08</ele>
        <time>2020-02-16T11:08:24Z</time>
      </trkpt>
      <trkpt lat="45.37923" lon="5.62588">
        <ele>510.12</ele>
        <time>2020-02-16T11:08:32Z</time>
      </trkpt>
      <trkpt lat="45.37918" lon="5.62604">
        <ele>508.19</ele>
        <time>2020-02-16T11:08:35Z</time>
      </trkpt>
      <trkpt lat="45.37917" lon="5.62625">
        <ele>507.23</ele>
        <time>2020-02-16T11:08:39Z</time>
      </trkpt>
      <trkpt lat="45.37911" lon="5.62649">
        <ele>504.83</ele>
        <time>2020-02-16T11:08:44Z</time>
      </trkpt>
      <trkpt lat="45.37903" lon="5.6267">
        <ele>504.83</ele>
        <time>2020-02-16T11:08:49Z</time>
      </trkpt>
      <trkpt lat="45.37897" lon="5.62684">
        <ele>503.87</ele>
        <time>2020-02-16T11:08:53Z</time>
      </trkpt>
      <trkpt lat="45.3789" lon="5.62695">
        <ele>502.91</ele>
        <time>2020-02-16T11:08:57Z</time>
      </trkpt>
      <trkpt lat="45.3788" lon="5.62709">
        <ele>500.98</ele>
        <time>2020-02-16T11:09:01Z</time>
      </trkpt>
      <trkpt lat="45.37876" lon="5.62717">
        <ele>499.06</ele>
        <time>2020-02-16T11:09:04Z</time>
      </trkpt>
      <trkpt lat="45.37874" lon="5.62723">
        <ele>498.1</ele>
        <time>2020-02-16T11:09:26Z</time>
      </trkpt>
      <trkpt lat="45.37859" lon="5.6274">
        <ele>497.14</ele>
        <time>2020-02-16T11:09:41Z</time>
      </trkpt>
      <trkpt lat="45.37853" lon="5.62748">
        <ele>496.18</ele>
        <time>2020-02-16T11:09:47Z</time>
      </trkpt>
      <trkpt lat="45.37847" lon="5.62752">
        <ele>495.22</ele>
        <time>2020-02-16T11:09:50Z</time>
      </trkpt>
      <trkpt lat="45.37832" lon="5.62767">
        <ele>490.89</ele>
        <time>2020-02-16T11:10:00Z</time>
      </trkpt>
      <trkpt lat="45.37824" lon="5.6277">
        <ele>489.93</ele>
        <time>2020-02-16T11:10:04Z</time>
      </trkpt>
      <trkpt lat="45.37797" lon="5.62779">
        <ele>486.08</ele>
        <time>2020-02-16T11:10:12Z</time>
      </trkpt>
      <trkpt lat="45.37784" lon="5.62785">
        <ele>484.16</ele>
        <time>2020-02-16T11:10:16Z</time>
      </trkpt>
      <trkpt lat="45.37765" lon="5.62788">
        <ele>479.84</ele>
        <time>2020-02-16T11:10:22Z</time>
      </trkpt>
      <trkpt lat="45.37757" lon="5.62795">
        <ele>475.99</ele>
        <time>2020-02-16T11:10:26Z</time>
      </trkpt>
      <trkpt lat="45.3775" lon="5.62809">
        <ele>473.11</ele>
        <time>2020-02-16T11:10:30Z</time>
      </trkpt>
      <trkpt lat="45.37744" lon="5.6283">
        <ele>468.78</ele>
        <time>2020-02-16T11:10:35Z</time>
      </trkpt>
      <trkpt lat="45.37742" lon="5.62834">
        <ele>468.78</ele>
        <time>2020-02-16T11:10:36Z</time>
      </trkpt>
      <trkpt lat="45.37732" lon="5.62844">
        <ele>465.9</ele>
        <time>2020-02-16T11:10:40Z</time>
      </trkpt>
      <trkpt lat="45.37713" lon="5.62842">
        <ele>462.05</ele>
        <time>2020-02-16T11:10:45Z</time>
      </trkpt>
      <trkpt lat="45.37706" lon="5.6284">
        <ele>461.09</ele>
        <time>2020-02-16T11:10:47Z</time>
      </trkpt>
      <trkpt lat="45.37678" lon="5.62825">
        <ele>463.01</ele>
        <time>2020-02-16T11:11:01Z</time>
      </trkpt>
      <trkpt lat="45.3767" lon="5.62816">
        <ele>463.97</ele>
        <time>2020-02-16T11:11:06Z</time>
      </trkpt>
      <trkpt lat="45.37668" lon="5.62815">
        <ele>463.97</ele>
        <time>2020-02-16T11:11:07Z</time>
      </trkpt>
      <trkpt lat="45.37666" lon="5.62814">
        <ele>464.93</ele>
        <time>2020-02-16T11:11:08Z</time>
      </trkpt>
      <trkpt lat="45.37649" lon="5.62804">
        <ele>467.82</ele>
        <time>2020-02-16T11:11:19Z</time>
      </trkpt>
      <trkpt lat="45.37637" lon="5.6279">
        <ele>470.22</ele>
        <time>2020-02-16T11:11:28Z</time>
      </trkpt>
      <trkpt lat="45.37631" lon="5.62775">
        <ele>471.18</ele>
        <time>2020-02-16T11:11:35Z</time>
      </trkpt>
      <trkpt lat="45.37607" lon="5.62741">
        <ele>473.11</ele>
        <time>2020-02-16T11:11:53Z</time>
      </trkpt>
      <trkpt lat="45.37578" lon="5.62708">
        <ele>474.07</ele>
        <time>2020-02-16T11:12:10Z</time>
      </trkpt>
      <trkpt lat="45.37551" lon="5.62666">
        <ele>475.03</ele>
        <time>2020-02-16T11:12:26Z</time>
      </trkpt>
      <trkpt lat="45.37528" lon="5.62624">
        <ele>475.99</ele>
        <time>2020-02-16T11:12:41Z</time>
      </trkpt>
      <trkpt lat="45.37513" lon="5.62593">
        <ele>476.95</ele>
        <time>2020-02-16T11:12:52Z</time>
      </trkpt>
      <trkpt lat="45.37512" lon="5.62591">
        <ele>476.95</ele>
        <time>2020-02-16T11:12:53Z</time>
      </trkpt>
      <trkpt lat="45.37511" lon="5.62588">
        <ele>476.95</ele>
        <time>2020-02-16T11:12:54Z</time>
      </trkpt>
      <trkpt lat="45.3751" lon="5.62585">
        <ele>477.91</ele>
        <time>2020-02-16T11:12:55Z</time>
      </trkpt>
      <trkpt lat="45.37508" lon="5.62583">
        <ele>477.91</ele>
        <time>2020-02-16T11:12:56Z</time>
      </trkpt>
      <trkpt lat="45.37506" lon="5.6258">
        <ele>477.91</ele>
        <time>2020-02-16T11:12:57Z</time>
      </trkpt>
      <trkpt lat="45.37505" lon="5.62577">
        <ele>477.91</ele>
        <time>2020-02-16T11:12:58Z</time>
      </trkpt>
      <trkpt lat="45.37504" lon="5.62575">
        <ele>477.91</ele>
        <time>2020-02-16T11:12:59Z</time>
      </trkpt>
      <trkpt lat="45.37503" lon="5.62573">
        <ele>478.87</ele>
        <time>2020-02-16T11:13:00Z</time>
      </trkpt>
      <trkpt lat="45.37499" lon="5.62557">
        <ele>479.84</ele>
        <time>2020-02-16T11:13:12Z</time>
      </trkpt>
      <trkpt lat="45.37498" lon="5.62553">
        <ele>478.87</ele>
        <time>2020-02-16T11:13:35Z</time>
      </trkpt>
      <trkpt lat="45.37494" lon="5.6255">
        <ele>478.87</ele>
        <time>2020-02-16T11:13:55Z</time>
      </trkpt>
      <trkpt lat="45.37488" lon="5.62554">
        <ele>478.87</ele>
        <time>2020-02-16T11:14:12Z</time>
      </trkpt>
      <trkpt lat="45.37479" lon="5.62565">
        <ele>476.95</ele>
        <time>2020-02-16T11:14:20Z</time>
      </trkpt>
      <trkpt lat="45.37469" lon="5.62574">
        <ele>475.99</ele>
        <time>2020-02-16T11:14:39Z</time>
      </trkpt>
      <trkpt lat="45.37444" lon="5.62588">
        <ele>474.07</ele>
        <time>2020-02-16T11:14:49Z</time>
      </trkpt>
      <trkpt lat="45.37427" lon="5.62574">
        <ele>474.07</ele>
        <time>2020-02-16T11:14:56Z</time>
      </trkpt>
      <trkpt lat="45.37425" lon="5.62571">
        <ele>474.07</ele>
        <time>2020-02-16T11:14:57Z</time>
      </trkpt>
      <trkpt lat="45.37423" lon="5.62568">
        <ele>474.07</ele>
        <time>2020-02-16T11:14:58Z</time>
      </trkpt>
      <trkpt lat="45.37387" lon="5.62525">
        <ele>475.03</ele>
        <time>2020-02-16T11:15:14Z</time>
      </trkpt>
      <trkpt lat="45.37351" lon="5.62486">
        <ele>475.03</ele>
        <time>2020-02-16T11:15:28Z</time>
      </trkpt>
      <trkpt lat="45.3734" lon="5.62445">
        <ele>476.95</ele>
        <time>2020-02-16T11:15:41Z</time>
      </trkpt>
      <trkpt lat="45.37328" lon="5.62402">
        <ele>478.87</ele>
        <time>2020-02-16T11:15:59Z</time>
      </trkpt>
      <trkpt lat="45.37312" lon="5.62364">
        <ele>477.91</ele>
        <time>2020-02-16T11:16:12Z</time>
      </trkpt>
      <trkpt lat="45.37279" lon="5.6231">
        <ele>476.95</ele>
        <time>2020-02-16T11:16:27Z</time>
      </trkpt>
      <trkpt lat="45.37246" lon="5.62277">
        <ele>476.95</ele>
        <time>2020-02-16T11:16:40Z</time>
      </trkpt>
      <trkpt lat="45.37199" lon="5.62244">
        <ele>475.99</ele>
        <time>2020-02-16T11:16:55Z</time>
      </trkpt>
      <trkpt lat="45.37195" lon="5.62245">
        <ele>475.99</ele>
        <time>2020-02-16T11:16:56Z</time>
      </trkpt>
      <trkpt lat="45.37193" lon="5.62248">
        <ele>475.03</ele>
        <time>2020-02-16T11:16:57Z</time>
      </trkpt>
      <trkpt lat="45.37189" lon="5.62255">
        <ele>475.03</ele>
        <time>2020-02-16T11:16:59Z</time>
      </trkpt>
      <trkpt lat="45.37176" lon="5.62283">
        <ele>475.03</ele>
        <time>2020-02-16T11:17:06Z</time>
      </trkpt>
      <trkpt lat="45.37143" lon="5.62306">
        <ele>471.18</ele>
        <time>2020-02-16T11:17:14Z</time>
      </trkpt>
      <trkpt lat="45.37129" lon="5.62317">
        <ele>467.82</ele>
        <time>2020-02-16T11:17:19Z</time>
      </trkpt>
      <trkpt lat="45.37123" lon="5.62323">
        <ele>465.9</ele>
        <time>2020-02-16T11:17:21Z</time>
      </trkpt>
      <trkpt lat="45.37104" lon="5.62341">
        <ele>462.05</ele>
        <time>2020-02-16T11:17:26Z</time>
      </trkpt>
      <trkpt lat="45.37085" lon="5.62356">
        <ele>458.21</ele>
        <time>2020-02-16T11:17:31Z</time>
      </trkpt>
      <trkpt lat="45.37068" lon="5.62368">
        <ele>454.84</ele>
        <time>2020-02-16T11:17:36Z</time>
      </trkpt>
      <trkpt lat="45.37056" lon="5.6238">
        <ele>453.88</ele>
        <time>2020-02-16T11:17:39Z</time>
      </trkpt>
      <trkpt lat="45.3704" lon="5.62408">
        <ele>451.96</ele>
        <time>2020-02-16T11:17:44Z</time>
      </trkpt>
      <trkpt lat="45.37022" lon="5.62446">
        <ele>450.03</ele>
        <time>2020-02-16T11:17:50Z</time>
      </trkpt>
      <trkpt lat="45.37016" lon="5.62467">
        <ele>449.07</ele>
        <time>2020-02-16T11:17:53Z</time>
      </trkpt>
      <trkpt lat="45.37011" lon="5.62482">
        <ele>448.11</ele>
        <time>2020-02-16T11:17:55Z</time>
      </trkpt>
      <trkpt lat="45.36983" lon="5.62571">
        <ele>445.23</ele>
        <time>2020-02-16T11:18:09Z</time>
      </trkpt>
      <trkpt lat="45.36962" lon="5.62603">
        <ele>440.9</ele>
        <time>2020-02-16T11:18:17Z</time>
      </trkpt>
      <trkpt lat="45.36944" lon="5.62626">
        <ele>438.02</ele>
        <time>2020-02-16T11:18:24Z</time>
      </trkpt>
      <trkpt lat="45.36938" lon="5.62633">
        <ele>437.06</ele>
        <time>2020-02-16T11:18:31Z</time>
      </trkpt>
      <trkpt lat="45.36921" lon="5.62643">
        <ele>435.13</ele>
        <time>2020-02-16T11:18:39Z</time>
      </trkpt>
      <trkpt lat="45.369" lon="5.62648">
        <ele>431.77</ele>
        <time>2020-02-16T11:18:47Z</time>
      </trkpt>
      <trkpt lat="45.36885" lon="5.6267">
        <ele>427.92</ele>
        <time>2020-02-16T11:18:53Z</time>
      </trkpt>
      <trkpt lat="45.3688" lon="5.6269">
        <ele>426</ele>
        <time>2020-02-16T11:18:58Z</time>
      </trkpt>
      <trkpt lat="45.3688" lon="5.62709">
        <ele>424.08</ele>
        <time>2020-02-16T11:19:02Z</time>
      </trkpt>
      <trkpt lat="45.36888" lon="5.62762">
        <ele>421.19</ele>
        <time>2020-02-16T11:19:09Z</time>
      </trkpt>
      <trkpt lat="45.3689" lon="5.62777">
        <ele>420.23</ele>
        <time>2020-02-16T11:19:11Z</time>
      </trkpt>
      <trkpt lat="45.36891" lon="5.62799">
        <ele>417.83</ele>
        <time>2020-02-16T11:19:15Z</time>
      </trkpt>
      <trkpt lat="45.36891" lon="5.62809">
        <ele>416.87</ele>
        <time>2020-02-16T11:19:17Z</time>
      </trkpt>
      <trkpt lat="45.36874" lon="5.62839">
        <ele>413.98</ele>
        <time>2020-02-16T11:19:26Z</time>
      </trkpt>
      <trkpt lat="45.36868" lon="5.62837">
        <ele>413.02</ele>
        <time>2020-02-16T11:19:28Z</time>
      </trkpt>
      <trkpt lat="45.36851" lon="5.62823">
        <ele>410.14</ele>
        <time>2020-02-16T11:19:33Z</time>
      </trkpt>
      <trkpt lat="45.36838" lon="5.62822">
        <ele>408.22</ele>
        <time>2020-02-16T11:19:36Z</time>
      </trkpt>
      <trkpt lat="45.36828" lon="5.62824">
        <ele>405.81</ele>
        <time>2020-02-16T11:19:38Z</time>
      </trkpt>
      <trkpt lat="45.36813" lon="5.62842">
        <ele>403.89</ele>
        <time>2020-02-16T11:19:41Z</time>
      </trkpt>
      <trkpt lat="45.36807" lon="5.62848">
        <ele>402.93</ele>
        <time>2020-02-16T11:19:42Z</time>
      </trkpt>
      <trkpt lat="45.36802" lon="5.62853">
        <ele>401.97</ele>
        <time>2020-02-16T11:19:43Z</time>
      </trkpt>
      <trkpt lat="45.36787" lon="5.62864">
        <ele>400.05</ele>
        <time>2020-02-16T11:19:46Z</time>
      </trkpt>
      <trkpt lat="45.36778" lon="5.62869">
        <ele>398.12</ele>
        <time>2020-02-16T11:19:48Z</time>
      </trkpt>
      <trkpt lat="45.36774" lon="5.62871">
        <ele>398.12</ele>
        <time>2020-02-16T11:19:49Z</time>
      </trkpt>
      <trkpt lat="45.3677" lon="5.62873">
        <ele>398.12</ele>
        <time>2020-02-16T11:19:50Z</time>
      </trkpt>
      <trkpt lat="45.36759" lon="5.62874">
        <ele>397.16</ele>
        <time>2020-02-16T11:19:59Z</time>
      </trkpt>
      <trkpt lat="45.36755" lon="5.62871">
        <ele>397.16</ele>
        <time>2020-02-16T11:20:28Z</time>
      </trkpt>
      <trkpt lat="45.36754" lon="5.62869">
        <ele>397.16</ele>
        <time>2020-02-16T11:20:29Z</time>
      </trkpt>
      <trkpt lat="45.36752" lon="5.62861">
        <ele>397.16</ele>
        <time>2020-02-16T11:20:31Z</time>
      </trkpt>
      <trkpt lat="45.36743" lon="5.62826">
        <ele>397.16</ele>
        <time>2020-02-16T11:20:38Z</time>
      </trkpt>
      <trkpt lat="45.36723" lon="5.62761">
        <ele>396.2</ele>
        <time>2020-02-16T11:20:51Z</time>
      </trkpt>
      <trkpt lat="45.36704" lon="5.62707">
        <ele>397.16</ele>
        <time>2020-02-16T11:21:06Z</time>
      </trkpt>
      <trkpt lat="45.36704" lon="5.62707">
        <ele>398.12</ele>
        <time>2020-02-16T11:21:27Z</time>
      </trkpt>
      <trkpt lat="45.36702" lon="5.62705">
        <ele>398.12</ele>
        <time>2020-02-16T11:22:11Z</time>
      </trkpt>
      <trkpt lat="45.36702" lon="5.62704">
        <ele>398.12</ele>
        <time>2020-02-16T11:22:38Z</time>
      </trkpt>
      <trkpt lat="45.36702" lon="5.62702">
        <ele>398.12</ele>
        <time>2020-02-16T11:22:39Z</time>
      </trkpt>
      <trkpt lat="45.36701" lon="5.627">
        <ele>398.12</ele>
        <time>2020-02-16T11:22:40Z</time>
      </trkpt>
      <trkpt lat="45.36701" lon="5.62696">
        <ele>398.12</ele>
        <time>2020-02-16T11:22:41Z</time>
      </trkpt>
      <trkpt lat="45.36701" lon="5.62692">
        <ele>398.12</ele>
        <time>2020-02-16T11:22:42Z</time>
      </trkpt>
      <trkpt lat="45.367" lon="5.62688">
        <ele>398.12</ele>
        <time>2020-02-16T11:22:43Z</time>
      </trkpt>
      <trkpt lat="45.36693" lon="5.62612">
        <ele>397.16</ele>
        <time>2020-02-16T11:22:57Z</time>
      </trkpt>
      <trkpt lat="45.36683" lon="5.62482">
        <ele>399.08</ele>
        <time>2020-02-16T11:23:19Z</time>
      </trkpt>
      <trkpt lat="45.36658" lon="5.6236">
        <ele>400.05</ele>
        <time>2020-02-16T11:23:40Z</time>
      </trkpt>
      <trkpt lat="45.36626" lon="5.62264">
        <ele>401.97</ele>
        <time>2020-02-16T11:23:58Z</time>
      </trkpt>
      <trkpt lat="45.36605" lon="5.62216">
        <ele>402.93</ele>
        <time>2020-02-16T11:24:09Z</time>
      </trkpt>
      <trkpt lat="45.36581" lon="5.62186">
        <ele>403.89</ele>
        <time>2020-02-16T11:24:17Z</time>
      </trkpt>
      <trkpt lat="45.36533" lon="5.6213">
        <ele>404.85</ele>
        <time>2020-02-16T11:24:32Z</time>
      </trkpt>
      <trkpt lat="45.36501" lon="5.6211">
        <ele>404.85</ele>
        <time>2020-02-16T11:24:42Z</time>
      </trkpt>
      <trkpt lat="45.36497" lon="5.6211">
        <ele>404.85</ele>
        <time>2020-02-16T11:24:43Z</time>
      </trkpt>
      <trkpt lat="45.36493" lon="5.62109">
        <ele>404.85</ele>
        <time>2020-02-16T11:24:44Z</time>
      </trkpt>
      <trkpt lat="45.36491" lon="5.62106">
        <ele>404.85</ele>
        <time>2020-02-16T11:24:45Z</time>
      </trkpt>
      <trkpt lat="45.3649" lon="5.62105">
        <ele>404.85</ele>
        <time>2020-02-16T11:24:46Z</time>
      </trkpt>
      <trkpt lat="45.36486" lon="5.62101">
        <ele>403.89</ele>
        <time>2020-02-16T11:24:50Z</time>
      </trkpt>
      <trkpt lat="45.36484" lon="5.621">
        <ele>402.93</ele>
        <time>2020-02-16T11:24:51Z</time>
      </trkpt>
      <trkpt lat="45.36483" lon="5.62099">
        <ele>402.93</ele>
        <time>2020-02-16T11:24:52Z</time>
      </trkpt>
      <trkpt lat="45.3648" lon="5.62094">
        <ele>400.05</ele>
        <time>2020-02-16T11:24:55Z</time>
      </trkpt>
      <trkpt lat="45.36478" lon="5.62094">
        <ele>400.05</ele>
        <time>2020-02-16T11:24:56Z</time>
      </trkpt>
      <trkpt lat="45.36476" lon="5.62095">
        <ele>399.08</ele>
        <time>2020-02-16T11:24:57Z</time>
      </trkpt>
      <trkpt lat="45.36474" lon="5.62095">
        <ele>397.16</ele>
        <time>2020-02-16T11:25:11Z</time>
      </trkpt>
      <trkpt lat="45.36472" lon="5.62095">
        <ele>397.16</ele>
        <time>2020-02-16T11:25:27Z</time>
      </trkpt>
      <trkpt lat="45.36469" lon="5.62095">
        <ele>397.16</ele>
        <time>2020-02-16T11:25:45Z</time>
      </trkpt>
      <trkpt lat="45.36468" lon="5.62095">
        <ele>397.16</ele>
        <time>2020-02-16T11:25:46Z</time>
      </trkpt>
      <trkpt lat="45.36466" lon="5.62096">
        <ele>397.16</ele>
        <time>2020-02-16T11:25:47Z</time>
      </trkpt>
      <trkpt lat="45.36464" lon="5.62096">
        <ele>397.16</ele>
        <time>2020-02-16T11:25:48Z</time>
      </trkpt>
      <trkpt lat="45.36462" lon="5.62097">
        <ele>396.2</ele>
        <time>2020-02-16T11:25:49Z</time>
      </trkpt>
      <trkpt lat="45.36459" lon="5.62097">
        <ele>396.2</ele>
        <time>2020-02-16T11:25:50Z</time>
      </trkpt>
      <trkpt lat="45.36456" lon="5.62097">
        <ele>396.2</ele>
        <time>2020-02-16T11:25:51Z</time>
      </trkpt>
      <trkpt lat="45.36421" lon="5.62096">
        <ele>392.84</ele>
        <time>2020-02-16T11:26:02Z</time>
      </trkpt>
      <trkpt lat="45.36411" lon="5.62095">
        <ele>391.87</ele>
        <time>2020-02-16T11:26:04Z</time>
      </trkpt>
      <trkpt lat="45.36382" lon="5.62095">
        <ele>388.99</ele>
        <time>2020-02-16T11:26:09Z</time>
      </trkpt>
      <trkpt lat="45.36375" lon="5.62094">
        <ele>388.03</ele>
        <time>2020-02-16T11:26:10Z</time>
      </trkpt>
      <trkpt lat="45.36355" lon="5.62066">
        <ele>385.15</ele>
        <time>2020-02-16T11:26:14Z</time>
      </trkpt>
      <trkpt lat="45.36354" lon="5.62054">
        <ele>384.18</ele>
        <time>2020-02-16T11:26:15Z</time>
      </trkpt>
      <trkpt lat="45.36352" lon="5.61975">
        <ele>378.9</ele>
        <time>2020-02-16T11:26:21Z</time>
      </trkpt>
      <trkpt lat="45.3635" lon="5.61962">
        <ele>377.94</ele>
        <time>2020-02-16T11:26:22Z</time>
      </trkpt>
      <trkpt lat="45.3633" lon="5.61916">
        <ele>373.13</ele>
        <time>2020-02-16T11:26:27Z</time>
      </trkpt>
      <trkpt lat="45.36316" lon="5.61906">
        <ele>372.17</ele>
        <time>2020-02-16T11:26:29Z</time>
      </trkpt>
      <trkpt lat="45.36275" lon="5.61873">
        <ele>365.92</ele>
        <time>2020-02-16T11:26:35Z</time>
      </trkpt>
      <trkpt lat="45.3627" lon="5.61866">
        <ele>364.96</ele>
        <time>2020-02-16T11:26:36Z</time>
      </trkpt>
      <trkpt lat="45.36243" lon="5.61847">
        <ele>362.07</ele>
        <time>2020-02-16T11:26:41Z</time>
      </trkpt>
      <trkpt lat="45.362" lon="5.61834">
        <ele>356.79</ele>
        <time>2020-02-16T11:26:48Z</time>
      </trkpt>
      <trkpt lat="45.36195" lon="5.61832">
        <ele>355.83</ele>
        <time>2020-02-16T11:26:49Z</time>
      </trkpt>
      <trkpt lat="45.36167" lon="5.61829">
        <ele>352.94</ele>
        <time>2020-02-16T11:26:57Z</time>
      </trkpt>
      <trkpt lat="45.36158" lon="5.61831">
        <ele>351.98</ele>
        <time>2020-02-16T11:27:00Z</time>
      </trkpt>
      <trkpt lat="45.3615" lon="5.61839">
        <ele>351.02</ele>
        <time>2020-02-16T11:27:09Z</time>
      </trkpt>
      <trkpt lat="45.36151" lon="5.61841">
        <ele>351.02</ele>
        <time>2020-02-16T11:27:45Z</time>
      </trkpt>
      <trkpt lat="45.36149" lon="5.6184">
        <ele>351.02</ele>
        <time>2020-02-16T11:28:08Z</time>
      </trkpt>
      <trkpt lat="45.36127" lon="5.61855">
        <ele>350.06</ele>
        <time>2020-02-16T11:28:20Z</time>
      </trkpt>
      <trkpt lat="45.36079" lon="5.61886">
        <ele>349.1</ele>
        <time>2020-02-16T11:28:31Z</time>
      </trkpt>
      <trkpt lat="45.36012" lon="5.61904">
        <ele>346.21</ele>
        <time>2020-02-16T11:28:42Z</time>
      </trkpt>
      <trkpt lat="45.3591" lon="5.61927">
        <ele>342.85</ele>
        <time>2020-02-16T11:29:00Z</time>
      </trkpt>
      <trkpt lat="45.3583" lon="5.6195">
        <ele>339</ele>
        <time>2020-02-16T11:29:15Z</time>
      </trkpt>
      <trkpt lat="45.35789" lon="5.61968">
        <ele>338.04</ele>
        <time>2020-02-16T11:29:23Z</time>
      </trkpt>
      <trkpt lat="45.35769" lon="5.61963">
        <ele>337.08</ele>
        <time>2020-02-16T11:29:27Z</time>
      </trkpt>
      <trkpt lat="45.35751" lon="5.61949">
        <ele>337.08</ele>
        <time>2020-02-16T11:29:31Z</time>
      </trkpt>
      <trkpt lat="45.35718" lon="5.61906">
        <ele>337.08</ele>
        <time>2020-02-16T11:29:43Z</time>
      </trkpt>
      <trkpt lat="45.35702" lon="5.61854">
        <ele>338.04</ele>
        <time>2020-02-16T11:29:56Z</time>
      </trkpt>
      <trkpt lat="45.35702" lon="5.61848">
        <ele>339.96</ele>
        <time>2020-02-16T11:39:55Z</time>
      </trkpt>
      <trkpt lat="45.35703" lon="5.61844">
        <ele>339.96</ele>
        <time>2020-02-16T11:39:56Z</time>
      </trkpt>
      <trkpt lat="45.3573" lon="5.61823">
        <ele>339</ele>
        <time>2020-02-16T11:40:04Z</time>
      </trkpt>
      <trkpt lat="45.35735" lon="5.61818">
        <ele>339</ele>
        <time>2020-02-16T11:40:05Z</time>
      </trkpt>
      <trkpt lat="45.35739" lon="5.61812">
        <ele>338.04</ele>
        <time>2020-02-16T11:40:06Z</time>
      </trkpt>
      <trkpt lat="45.35742" lon="5.61805">
        <ele>338.04</ele>
        <time>2020-02-16T11:40:07Z</time>
      </trkpt>
      <trkpt lat="45.35744" lon="5.61797">
        <ele>337.08</ele>
        <time>2020-02-16T11:40:08Z</time>
      </trkpt>
      <trkpt lat="45.35745" lon="5.61787">
        <ele>336.12</ele>
        <time>2020-02-16T11:40:09Z</time>
      </trkpt>
      <trkpt lat="45.35747" lon="5.61776">
        <ele>336.12</ele>
        <time>2020-02-16T11:40:10Z</time>
      </trkpt>
      <trkpt lat="45.35753" lon="5.61729">
        <ele>331.79</ele>
        <time>2020-02-16T11:40:14Z</time>
      </trkpt>
      <trkpt lat="45.35756" lon="5.61699">
        <ele>327.95</ele>
        <time>2020-02-16T11:40:17Z</time>
      </trkpt>
      <trkpt lat="45.3576" lon="5.61669">
        <ele>326.02</ele>
        <time>2020-02-16T11:40:21Z</time>
      </trkpt>
      <trkpt lat="45.35759" lon="5.61663">
        <ele>325.06</ele>
        <time>2020-02-16T11:40:22Z</time>
      </trkpt>
      <trkpt lat="45.35757" lon="5.61658">
        <ele>325.06</ele>
        <time>2020-02-16T11:40:23Z</time>
      </trkpt>
      <trkpt lat="45.35754" lon="5.61653">
        <ele>325.06</ele>
        <time>2020-02-16T11:40:24Z</time>
      </trkpt>
      <trkpt lat="45.3575" lon="5.61648">
        <ele>325.06</ele>
        <time>2020-02-16T11:40:25Z</time>
      </trkpt>
      <trkpt lat="45.35725" lon="5.61615">
        <ele>326.02</ele>
        <time>2020-02-16T11:40:36Z</time>
      </trkpt>
      <trkpt lat="45.35708" lon="5.6161">
        <ele>328.91</ele>
        <time>2020-02-16T11:40:45Z</time>
      </trkpt>
      <trkpt lat="45.35687" lon="5.61596">
        <ele>329.87</ele>
        <time>2020-02-16T11:40:53Z</time>
      </trkpt>
      <trkpt lat="45.3567" lon="5.61587">
        <ele>329.87</ele>
        <time>2020-02-16T11:40:57Z</time>
      </trkpt>
      <trkpt lat="45.35643" lon="5.61575">
        <ele>328.91</ele>
        <time>2020-02-16T11:41:04Z</time>
      </trkpt>
      <trkpt lat="45.35634" lon="5.61568">
        <ele>327.95</ele>
        <time>2020-02-16T11:41:06Z</time>
      </trkpt>
      <trkpt lat="45.35596" lon="5.61525">
        <ele>325.06</ele>
        <time>2020-02-16T11:41:14Z</time>
      </trkpt>
      <trkpt lat="45.35574" lon="5.61504">
        <ele>324.1</ele>
        <time>2020-02-16T11:41:18Z</time>
      </trkpt>
      <trkpt lat="45.35569" lon="5.61502">
        <ele>324.1</ele>
        <time>2020-02-16T11:41:19Z</time>
      </trkpt>
      <trkpt lat="45.35565" lon="5.61502">
        <ele>324.1</ele>
        <time>2020-02-16T11:41:20Z</time>
      </trkpt>
      <trkpt lat="45.35561" lon="5.61502">
        <ele>324.1</ele>
        <time>2020-02-16T11:41:21Z</time>
      </trkpt>
      <trkpt lat="45.35557" lon="5.61501">
        <ele>324.1</ele>
        <time>2020-02-16T11:41:22Z</time>
      </trkpt>
      <trkpt lat="45.35512" lon="5.61477">
        <ele>326.02</ele>
        <time>2020-02-16T11:41:38Z</time>
      </trkpt>
      <trkpt lat="45.35501" lon="5.61422">
        <ele>324.1</ele>
        <time>2020-02-16T11:41:48Z</time>
      </trkpt>
      <trkpt lat="45.35491" lon="5.61371">
        <ele>319.78</ele>
        <time>2020-02-16T11:41:55Z</time>
      </trkpt>
      <trkpt lat="45.35493" lon="5.61331">
        <ele>318.81</ele>
        <time>2020-02-16T11:42:05Z</time>
      </trkpt>
      <trkpt lat="45.35494" lon="5.61317">
        <ele>318.81</ele>
        <time>2020-02-16T11:42:11Z</time>
      </trkpt>
      <trkpt lat="45.35492" lon="5.61315">
        <ele>318.81</ele>
        <time>2020-02-16T11:42:12Z</time>
      </trkpt>
      <trkpt lat="45.35488" lon="5.61313">
        <ele>318.81</ele>
        <time>2020-02-16T11:42:13Z</time>
      </trkpt>
      <trkpt lat="45.35434" lon="5.6126">
        <ele>317.85</ele>
        <time>2020-02-16T11:42:25Z</time>
      </trkpt>
      <trkpt lat="45.3543" lon="5.61254">
        <ele>317.85</ele>
        <time>2020-02-16T11:42:26Z</time>
      </trkpt>
      <trkpt lat="45.35426" lon="5.61246">
        <ele>317.85</ele>
        <time>2020-02-16T11:42:27Z</time>
      </trkpt>
      <trkpt lat="45.35423" lon="5.61239">
        <ele>317.85</ele>
        <time>2020-02-16T11:42:28Z</time>
      </trkpt>
      <trkpt lat="45.3542" lon="5.61231">
        <ele>316.89</ele>
        <time>2020-02-16T11:42:29Z</time>
      </trkpt>
      <trkpt lat="45.35412" lon="5.61207">
        <ele>316.89</ele>
        <time>2020-02-16T11:42:32Z</time>
      </trkpt>
      <trkpt lat="45.35411" lon="5.61198">
        <ele>316.89</ele>
        <time>2020-02-16T11:42:33Z</time>
      </trkpt>
      <trkpt lat="45.35412" lon="5.6119">
        <ele>316.89</ele>
        <time>2020-02-16T11:42:34Z</time>
      </trkpt>
      <trkpt lat="45.35414" lon="5.61181">
        <ele>316.89</ele>
        <time>2020-02-16T11:42:35Z</time>
      </trkpt>
      <trkpt lat="45.35415" lon="5.61172">
        <ele>315.93</ele>
        <time>2020-02-16T11:42:36Z</time>
      </trkpt>
      <trkpt lat="45.35416" lon="5.61162">
        <ele>315.93</ele>
        <time>2020-02-16T11:42:37Z</time>
      </trkpt>
      <trkpt lat="45.35415" lon="5.61151">
        <ele>315.93</ele>
        <time>2020-02-16T11:42:38Z</time>
      </trkpt>
      <trkpt lat="45.35412" lon="5.61141">
        <ele>315.93</ele>
        <time>2020-02-16T11:42:39Z</time>
      </trkpt>
      <trkpt lat="45.35407" lon="5.61133">
        <ele>314.97</ele>
        <time>2020-02-16T11:42:40Z</time>
      </trkpt>
      <trkpt lat="45.35376" lon="5.61133">
        <ele>304.276245</ele>
        <time>2020-02-16T11:43:58Z</time>
      </trkpt>
      <trkpt lat="45.35371" lon="5.61152">
        <ele>304.576263</ele>
        <time>2020-02-16T11:45:00Z</time>
      </trkpt>
      <trkpt lat="45.35376" lon="5.61133">
        <ele>304.276245</ele>
        <time>2020-02-16T11:45:20Z</time>
      </trkpt>
      <trkpt lat="45.35375" lon="5.61165">
        <ele>304.776245</ele>
        <time>2020-02-16T11:45:31Z</time>
      </trkpt>
      <trkpt lat="45.35366" lon="5.61155">
        <ele>304.626251</ele>
        <time>2020-02-16T11:45:44Z</time>
      </trkpt>
    </trkseg>
  </trk>
</gpx>